<?xml version="1.0" encoding="UTF-8" standalone="no" ?>
<gpx xmlns="http://www.topografix.com/GPX/1/1" xmlns:xsi="http://www.w3.org/2001/XMLSchema-instance" xsi:schemaLocation="http://www.topografix.com/GPX/1/1 http://www.topografix.com/GPX/1/1/gpx.xsd" version="1.1" creator="VisuGPX - https://www.visugpx.com">
  <metadata>
    <name>Autour de Marcilhac sur Cele</name>
    <desc><![CDATA[Entre causse et falaise belle balade avec des paysages grandioses. A faire tranquillement]]></desc>
  </metadata>
  <trk>
    <name><![CDATA[2015-11-11 11:16]]></name>
    <desc><![CDATA[<h1>OruxMaps</h1><br /><hr align="center" width="480" style="height: 2px; width: 517px"/><h2>Nom: 2015-11-11 11:16</h2><br /><p>Temps de départ: 11/11/2015 11:19</p><p>Temps d'arrivée: 11/11/2015 16:07</p><p>Distance: 19km (04:47)</p><p>Temps déplacement: 04:34</p><p>Vitesse moyenne: 4km/h</p><p>Vitesse moyenne: 4,2km/h</p><p>Vitess Max.: 10,5km/h</p><p>Altitude minimale: 110m</p><p>Altitude maximale: 342m</p><p>Vitesse d'élévation: 436,3m/h</p><p>Vitesse de descente: -415,8m/h</p><p>Gain Altitude: 943m</p><p>Perte Altitude: -957m</p><p>Temps d'élévation: 02:09</p><p>Temps de descente: 02:18</p><hr align="center" width="480" style="height: 2px; width: 517px"/>]]></desc>
    <trkseg>
      <trkpt lat="44.55204" lon="1.76989">
        <ele>160.6</ele>
        <time>2015-11-11T10:19:05Z</time>
      </trkpt>
      <trkpt lat="44.55193" lon="1.77009">
        <ele>155.11</ele>
        <time>2015-11-11T10:19:15Z</time>
      </trkpt>
      <trkpt lat="44.55175" lon="1.77017">
        <ele>152.42</ele>
        <time>2015-11-11T10:19:29Z</time>
      </trkpt>
      <trkpt lat="44.55158" lon="1.77027">
        <ele>149.88</ele>
        <time>2015-11-11T10:19:44Z</time>
      </trkpt>
      <trkpt lat="44.55142" lon="1.77042">
        <ele>148.73</ele>
        <time>2015-11-11T10:20:03Z</time>
      </trkpt>
      <trkpt lat="44.55123" lon="1.77041">
        <ele>156.46</ele>
        <time>2015-11-11T10:20:17Z</time>
      </trkpt>
      <trkpt lat="44.55108" lon="1.77056">
        <ele>154.16</ele>
        <time>2015-11-11T10:20:31Z</time>
      </trkpt>
      <trkpt lat="44.55094" lon="1.77071">
        <ele>154.7</ele>
        <time>2015-11-11T10:20:46Z</time>
      </trkpt>
      <trkpt lat="44.5508" lon="1.77089">
        <ele>149.28</ele>
        <time>2015-11-11T10:21:01Z</time>
      </trkpt>
      <trkpt lat="44.55077" lon="1.77115">
        <ele>155.52</ele>
        <time>2015-11-11T10:21:14Z</time>
      </trkpt>
      <trkpt lat="44.55085" lon="1.77139">
        <ele>157.79</ele>
        <time>2015-11-11T10:21:27Z</time>
      </trkpt>
      <trkpt lat="44.55089" lon="1.77164">
        <ele>157.43</ele>
        <time>2015-11-11T10:21:40Z</time>
      </trkpt>
      <trkpt lat="44.55094" lon="1.77189">
        <ele>157.47</ele>
        <time>2015-11-11T10:21:48Z</time>
      </trkpt>
      <trkpt lat="44.55106" lon="1.7721">
        <ele>154.05</ele>
        <time>2015-11-11T10:22:01Z</time>
      </trkpt>
      <trkpt lat="44.55117" lon="1.77232">
        <ele>149.36</ele>
        <time>2015-11-11T10:22:12Z</time>
      </trkpt>
      <trkpt lat="44.55125" lon="1.77255">
        <ele>140.31</ele>
        <time>2015-11-11T10:22:22Z</time>
      </trkpt>
      <trkpt lat="44.55137" lon="1.77281">
        <ele>134.95</ele>
        <time>2015-11-11T10:22:31Z</time>
      </trkpt>
      <trkpt lat="44.55151" lon="1.77296">
        <ele>130.51</ele>
        <time>2015-11-11T10:22:45Z</time>
      </trkpt>
      <trkpt lat="44.55167" lon="1.77309">
        <ele>131.21</ele>
        <time>2015-11-11T10:22:58Z</time>
      </trkpt>
      <trkpt lat="44.55184" lon="1.77328">
        <ele>125.2</ele>
        <time>2015-11-11T10:23:13Z</time>
      </trkpt>
      <trkpt lat="44.55196" lon="1.77351">
        <ele>118.66</ele>
        <time>2015-11-11T10:23:25Z</time>
      </trkpt>
      <trkpt lat="44.5521" lon="1.7737">
        <ele>116.43</ele>
        <time>2015-11-11T10:23:47Z</time>
      </trkpt>
      <trkpt lat="44.55219" lon="1.77395">
        <ele>112.68</ele>
        <time>2015-11-11T10:23:53Z</time>
      </trkpt>
      <trkpt lat="44.55225" lon="1.77421">
        <ele>110.07</ele>
        <time>2015-11-11T10:24:02Z</time>
      </trkpt>
      <trkpt lat="44.55244" lon="1.77431">
        <ele>110.12</ele>
        <time>2015-11-11T10:24:21Z</time>
      </trkpt>
      <trkpt lat="44.55246" lon="1.77404">
        <ele>117.11</ele>
        <time>2015-11-11T10:24:28Z</time>
      </trkpt>
      <trkpt lat="44.55265" lon="1.7741">
        <ele>130.22</ele>
        <time>2015-11-11T10:24:48Z</time>
      </trkpt>
      <trkpt lat="44.55285" lon="1.77412">
        <ele>134.2</ele>
        <time>2015-11-11T10:24:59Z</time>
      </trkpt>
      <trkpt lat="44.55303" lon="1.77414">
        <ele>141.01</ele>
        <time>2015-11-11T10:25:14Z</time>
      </trkpt>
      <trkpt lat="44.55321" lon="1.77416">
        <ele>147.66</ele>
        <time>2015-11-11T10:25:34Z</time>
      </trkpt>
      <trkpt lat="44.5534" lon="1.77426">
        <ele>149.45</ele>
        <time>2015-11-11T10:25:48Z</time>
      </trkpt>
      <trkpt lat="44.55356" lon="1.77437">
        <ele>153.01</ele>
        <time>2015-11-11T10:26:01Z</time>
      </trkpt>
      <trkpt lat="44.55374" lon="1.77445">
        <ele>149.98</ele>
        <time>2015-11-11T10:26:15Z</time>
      </trkpt>
      <trkpt lat="44.55392" lon="1.77453">
        <ele>148.71</ele>
        <time>2015-11-11T10:26:31Z</time>
      </trkpt>
      <trkpt lat="44.5541" lon="1.77457">
        <ele>148.24</ele>
        <time>2015-11-11T10:26:46Z</time>
      </trkpt>
      <trkpt lat="44.55429" lon="1.77453">
        <ele>146.38</ele>
        <time>2015-11-11T10:27:01Z</time>
      </trkpt>
      <trkpt lat="44.5545" lon="1.77449">
        <ele>144.46</ele>
        <time>2015-11-11T10:27:12Z</time>
      </trkpt>
      <trkpt lat="44.55468" lon="1.77444">
        <ele>147.66</ele>
        <time>2015-11-11T10:27:29Z</time>
      </trkpt>
      <trkpt lat="44.55486" lon="1.7744">
        <ele>150.05</ele>
        <time>2015-11-11T10:27:44Z</time>
      </trkpt>
      <trkpt lat="44.55507" lon="1.77433">
        <ele>159.87</ele>
        <time>2015-11-11T10:28:00Z</time>
      </trkpt>
      <trkpt lat="44.55525" lon="1.77426">
        <ele>162.81</ele>
        <time>2015-11-11T10:28:18Z</time>
      </trkpt>
      <trkpt lat="44.55542" lon="1.77416">
        <ele>165.35</ele>
        <time>2015-11-11T10:28:37Z</time>
      </trkpt>
      <trkpt lat="44.55561" lon="1.77412">
        <ele>165.75</ele>
        <time>2015-11-11T10:28:49Z</time>
      </trkpt>
      <trkpt lat="44.55579" lon="1.77411">
        <ele>165.45</ele>
        <time>2015-11-11T10:29:01Z</time>
      </trkpt>
      <trkpt lat="44.55598" lon="1.77404">
        <ele>168.88</ele>
        <time>2015-11-11T10:29:13Z</time>
      </trkpt>
      <trkpt lat="44.55616" lon="1.774">
        <ele>160.64</ele>
        <time>2015-11-11T10:29:27Z</time>
      </trkpt>
      <trkpt lat="44.55634" lon="1.77391">
        <ele>168.63</ele>
        <time>2015-11-11T10:29:45Z</time>
      </trkpt>
      <trkpt lat="44.55651" lon="1.77378">
        <ele>173.22</ele>
        <time>2015-11-11T10:29:59Z</time>
      </trkpt>
      <trkpt lat="44.55669" lon="1.77376">
        <ele>177.75</ele>
        <time>2015-11-11T10:30:11Z</time>
      </trkpt>
      <trkpt lat="44.55687" lon="1.77377">
        <ele>186.57</ele>
        <time>2015-11-11T10:30:28Z</time>
      </trkpt>
      <trkpt lat="44.55706" lon="1.7738">
        <ele>183.38</ele>
        <time>2015-11-11T10:30:43Z</time>
      </trkpt>
      <trkpt lat="44.55724" lon="1.77388">
        <ele>186.66</ele>
        <time>2015-11-11T10:31:01Z</time>
      </trkpt>
      <trkpt lat="44.55741" lon="1.77399">
        <ele>186.66</ele>
        <time>2015-11-11T10:31:16Z</time>
      </trkpt>
      <trkpt lat="44.55759" lon="1.77407">
        <ele>196.36</ele>
        <time>2015-11-11T10:31:34Z</time>
      </trkpt>
      <trkpt lat="44.55777" lon="1.77416">
        <ele>192.44</ele>
        <time>2015-11-11T10:31:53Z</time>
      </trkpt>
      <trkpt lat="44.55794" lon="1.77428">
        <ele>194.89</ele>
        <time>2015-11-11T10:32:06Z</time>
      </trkpt>
      <trkpt lat="44.55812" lon="1.77436">
        <ele>200.75</ele>
        <time>2015-11-11T10:32:20Z</time>
      </trkpt>
      <trkpt lat="44.5583" lon="1.77445">
        <ele>187.37</ele>
        <time>2015-11-11T10:32:36Z</time>
      </trkpt>
      <trkpt lat="44.55844" lon="1.77462">
        <ele>190.95</ele>
        <time>2015-11-11T10:32:51Z</time>
      </trkpt>
      <trkpt lat="44.55853" lon="1.77485">
        <ele>198.54</ele>
        <time>2015-11-11T10:33:06Z</time>
      </trkpt>
      <trkpt lat="44.55863" lon="1.77507">
        <ele>197.96</ele>
        <time>2015-11-11T10:33:23Z</time>
      </trkpt>
      <trkpt lat="44.55858" lon="1.77532">
        <ele>200.77</ele>
        <time>2015-11-11T10:33:38Z</time>
      </trkpt>
      <trkpt lat="44.55843" lon="1.77518">
        <ele>201.14</ele>
        <time>2015-11-11T10:34:00Z</time>
      </trkpt>
      <trkpt lat="44.55827" lon="1.77506">
        <ele>200.51</ele>
        <time>2015-11-11T10:34:18Z</time>
      </trkpt>
      <trkpt lat="44.5581" lon="1.77492">
        <ele>204.2</ele>
        <time>2015-11-11T10:34:32Z</time>
      </trkpt>
      <trkpt lat="44.55792" lon="1.77485">
        <ele>208.18</ele>
        <time>2015-11-11T10:34:52Z</time>
      </trkpt>
      <trkpt lat="44.55774" lon="1.77475">
        <ele>208.96</ele>
        <time>2015-11-11T10:35:08Z</time>
      </trkpt>
      <trkpt lat="44.55756" lon="1.77468">
        <ele>211.43</ele>
        <time>2015-11-11T10:35:23Z</time>
      </trkpt>
      <trkpt lat="44.55738" lon="1.77459">
        <ele>213.99</ele>
        <time>2015-11-11T10:35:37Z</time>
      </trkpt>
      <trkpt lat="44.55741" lon="1.77484">
        <ele>218.29</ele>
        <time>2015-11-11T10:36:06Z</time>
      </trkpt>
      <trkpt lat="44.55756" lon="1.77501">
        <ele>208.15</ele>
        <time>2015-11-11T10:36:26Z</time>
      </trkpt>
      <trkpt lat="44.55767" lon="1.7752">
        <ele>210.89</ele>
        <time>2015-11-11T10:36:42Z</time>
      </trkpt>
      <trkpt lat="44.55776" lon="1.77543">
        <ele>200.07</ele>
        <time>2015-11-11T10:36:59Z</time>
      </trkpt>
      <trkpt lat="44.55759" lon="1.77553">
        <ele>212.01</ele>
        <time>2015-11-11T10:37:24Z</time>
      </trkpt>
      <trkpt lat="44.55741" lon="1.77558">
        <ele>220.11</ele>
        <time>2015-11-11T10:37:46Z</time>
      </trkpt>
      <trkpt lat="44.55727" lon="1.77575">
        <ele>224.99</ele>
        <time>2015-11-11T10:38:03Z</time>
      </trkpt>
      <trkpt lat="44.5571" lon="1.77565">
        <ele>224.87</ele>
        <time>2015-11-11T10:38:22Z</time>
      </trkpt>
      <trkpt lat="44.55692" lon="1.77571">
        <ele>223.46</ele>
        <time>2015-11-11T10:38:41Z</time>
      </trkpt>
      <trkpt lat="44.55674" lon="1.77568">
        <ele>234.53</ele>
        <time>2015-11-11T10:39:15Z</time>
      </trkpt>
      <trkpt lat="44.55657" lon="1.77559">
        <ele>240.37</ele>
        <time>2015-11-11T10:39:42Z</time>
      </trkpt>
      <trkpt lat="44.55641" lon="1.77546">
        <ele>237.65</ele>
        <time>2015-11-11T10:39:58Z</time>
      </trkpt>
      <trkpt lat="44.55625" lon="1.77558">
        <ele>242.31</ele>
        <time>2015-11-11T10:40:22Z</time>
      </trkpt>
      <trkpt lat="44.55619" lon="1.77585">
        <ele>243.67</ele>
        <time>2015-11-11T10:40:44Z</time>
      </trkpt>
      <trkpt lat="44.55602" lon="1.77598">
        <ele>257.28</ele>
        <time>2015-11-11T10:41:16Z</time>
      </trkpt>
      <trkpt lat="44.55585" lon="1.77608">
        <ele>262.96</ele>
        <time>2015-11-11T10:41:33Z</time>
      </trkpt>
      <trkpt lat="44.55574" lon="1.77629">
        <ele>268.84</ele>
        <time>2015-11-11T10:41:52Z</time>
      </trkpt>
      <trkpt lat="44.55564" lon="1.77607">
        <ele>275.22</ele>
        <time>2015-11-11T10:42:40Z</time>
      </trkpt>
      <trkpt lat="44.55556" lon="1.77584">
        <ele>273.33</ele>
        <time>2015-11-11T10:43:10Z</time>
      </trkpt>
      <trkpt lat="44.55539" lon="1.77594">
        <ele>279.37</ele>
        <time>2015-11-11T10:43:36Z</time>
      </trkpt>
      <trkpt lat="44.55523" lon="1.77607">
        <ele>285.17</ele>
        <time>2015-11-11T10:44:02Z</time>
      </trkpt>
      <trkpt lat="44.55505" lon="1.77609">
        <ele>285.88</ele>
        <time>2015-11-11T10:44:21Z</time>
      </trkpt>
      <trkpt lat="44.5549" lon="1.77625">
        <ele>286.55</ele>
        <time>2015-11-11T10:44:39Z</time>
      </trkpt>
      <trkpt lat="44.55476" lon="1.77641">
        <ele>288.74</ele>
        <time>2015-11-11T10:45:09Z</time>
      </trkpt>
      <trkpt lat="44.55466" lon="1.77664">
        <ele>289.28</ele>
        <time>2015-11-11T10:45:26Z</time>
      </trkpt>
      <trkpt lat="44.55455" lon="1.77685">
        <ele>290.29</ele>
        <time>2015-11-11T10:45:40Z</time>
      </trkpt>
      <trkpt lat="44.55446" lon="1.77708">
        <ele>298.73</ele>
        <time>2015-11-11T10:46:00Z</time>
      </trkpt>
      <trkpt lat="44.5544" lon="1.77732">
        <ele>303.96</ele>
        <time>2015-11-11T10:46:17Z</time>
      </trkpt>
      <trkpt lat="44.5543" lon="1.77753">
        <ele>310.09</ele>
        <time>2015-11-11T10:46:39Z</time>
      </trkpt>
      <trkpt lat="44.55421" lon="1.77776">
        <ele>312.37</ele>
        <time>2015-11-11T10:46:54Z</time>
      </trkpt>
      <trkpt lat="44.55412" lon="1.77798">
        <ele>314.5</ele>
        <time>2015-11-11T10:47:14Z</time>
      </trkpt>
      <trkpt lat="44.55403" lon="1.77821">
        <ele>314.88</ele>
        <time>2015-11-11T10:47:34Z</time>
      </trkpt>
      <trkpt lat="44.554" lon="1.77846">
        <ele>317.32</ele>
        <time>2015-11-11T10:47:50Z</time>
      </trkpt>
      <trkpt lat="44.55397" lon="1.77871">
        <ele>319.92</ele>
        <time>2015-11-11T10:48:08Z</time>
      </trkpt>
      <trkpt lat="44.55391" lon="1.77895">
        <ele>322.46</ele>
        <time>2015-11-11T10:48:29Z</time>
      </trkpt>
      <trkpt lat="44.55384" lon="1.77918">
        <ele>324.46</ele>
        <time>2015-11-11T10:48:44Z</time>
      </trkpt>
      <trkpt lat="44.55371" lon="1.77937">
        <ele>322.62</ele>
        <time>2015-11-11T10:49:03Z</time>
      </trkpt>
      <trkpt lat="44.55353" lon="1.77944">
        <ele>321.14</ele>
        <time>2015-11-11T10:49:20Z</time>
      </trkpt>
      <trkpt lat="44.55339" lon="1.77961">
        <ele>328.76</ele>
        <time>2015-11-11T10:49:43Z</time>
      </trkpt>
      <trkpt lat="44.55327" lon="1.77981">
        <ele>334.29</ele>
        <time>2015-11-11T10:50:04Z</time>
      </trkpt>
      <trkpt lat="44.55313" lon="1.77998">
        <ele>341.29</ele>
        <time>2015-11-11T10:50:26Z</time>
      </trkpt>
      <trkpt lat="44.55303" lon="1.78019">
        <ele>341.66</ele>
        <time>2015-11-11T10:50:43Z</time>
      </trkpt>
      <trkpt lat="44.55216" lon="1.78133">
        <ele>342.49</ele>
        <time>2015-11-11T10:52:47Z</time>
      </trkpt>
      <trkpt lat="44.55226" lon="1.78154">
        <ele>332.06</ele>
        <time>2015-11-11T10:53:14Z</time>
      </trkpt>
      <trkpt lat="44.55228" lon="1.7818">
        <ele>330.67</ele>
        <time>2015-11-11T10:53:32Z</time>
      </trkpt>
      <trkpt lat="44.55227" lon="1.78205">
        <ele>327.5</ele>
        <time>2015-11-11T10:53:46Z</time>
      </trkpt>
      <trkpt lat="44.55228" lon="1.78231">
        <ele>322.63</ele>
        <time>2015-11-11T10:53:58Z</time>
      </trkpt>
      <trkpt lat="44.55232" lon="1.78256">
        <ele>322.38</ele>
        <time>2015-11-11T10:54:14Z</time>
      </trkpt>
      <trkpt lat="44.55232" lon="1.78283">
        <ele>318.68</ele>
        <time>2015-11-11T10:54:29Z</time>
      </trkpt>
      <trkpt lat="44.55232" lon="1.78308">
        <ele>318.01</ele>
        <time>2015-11-11T10:54:44Z</time>
      </trkpt>
      <trkpt lat="44.55236" lon="1.78335">
        <ele>319.85</ele>
        <time>2015-11-11T10:55:00Z</time>
      </trkpt>
      <trkpt lat="44.55238" lon="1.78361">
        <ele>319.68</ele>
        <time>2015-11-11T10:55:14Z</time>
      </trkpt>
      <trkpt lat="44.5524" lon="1.78387">
        <ele>319.58</ele>
        <time>2015-11-11T10:55:29Z</time>
      </trkpt>
      <trkpt lat="44.55242" lon="1.78413">
        <ele>317.42</ele>
        <time>2015-11-11T10:55:44Z</time>
      </trkpt>
      <trkpt lat="44.55246" lon="1.78439">
        <ele>320.8</ele>
        <time>2015-11-11T10:55:59Z</time>
      </trkpt>
      <trkpt lat="44.5525" lon="1.78464">
        <ele>322</ele>
        <time>2015-11-11T10:56:14Z</time>
      </trkpt>
      <trkpt lat="44.55252" lon="1.78491">
        <ele>324.88</ele>
        <time>2015-11-11T10:56:28Z</time>
      </trkpt>
      <trkpt lat="44.55251" lon="1.78517">
        <ele>326.8</ele>
        <time>2015-11-11T10:56:42Z</time>
      </trkpt>
      <trkpt lat="44.55255" lon="1.78542">
        <ele>327.24</ele>
        <time>2015-11-11T10:56:56Z</time>
      </trkpt>
      <trkpt lat="44.55257" lon="1.78568">
        <ele>328.59</ele>
        <time>2015-11-11T10:57:11Z</time>
      </trkpt>
      <trkpt lat="44.55262" lon="1.78592">
        <ele>328.63</ele>
        <time>2015-11-11T10:57:24Z</time>
      </trkpt>
      <trkpt lat="44.5526" lon="1.78618">
        <ele>328.3</ele>
        <time>2015-11-11T10:58:16Z</time>
      </trkpt>
      <trkpt lat="44.55262" lon="1.78645">
        <ele>329.48</ele>
        <time>2015-11-11T10:58:31Z</time>
      </trkpt>
      <trkpt lat="44.55265" lon="1.7867">
        <ele>326.19</ele>
        <time>2015-11-11T10:58:45Z</time>
      </trkpt>
      <trkpt lat="44.55268" lon="1.78697">
        <ele>327.42</ele>
        <time>2015-11-11T10:58:59Z</time>
      </trkpt>
      <trkpt lat="44.55271" lon="1.78724">
        <ele>322.99</ele>
        <time>2015-11-11T10:59:12Z</time>
      </trkpt>
      <trkpt lat="44.55272" lon="1.78751">
        <ele>322.78</ele>
        <time>2015-11-11T10:59:29Z</time>
      </trkpt>
      <trkpt lat="44.55274" lon="1.78778">
        <ele>321.32</ele>
        <time>2015-11-11T10:59:42Z</time>
      </trkpt>
      <trkpt lat="44.55276" lon="1.78804">
        <ele>318.56</ele>
        <time>2015-11-11T10:59:56Z</time>
      </trkpt>
      <trkpt lat="44.5528" lon="1.78831">
        <ele>313.6</ele>
        <time>2015-11-11T11:00:13Z</time>
      </trkpt>
      <trkpt lat="44.55284" lon="1.78858">
        <ele>312.8</ele>
        <time>2015-11-11T11:00:26Z</time>
      </trkpt>
      <trkpt lat="44.55283" lon="1.78884">
        <ele>309.69</ele>
        <time>2015-11-11T11:00:42Z</time>
      </trkpt>
      <trkpt lat="44.55282" lon="1.7891">
        <ele>306.26</ele>
        <time>2015-11-11T11:00:57Z</time>
      </trkpt>
      <trkpt lat="44.55287" lon="1.78934">
        <ele>304.32</ele>
        <time>2015-11-11T11:01:11Z</time>
      </trkpt>
      <trkpt lat="44.55288" lon="1.7896">
        <ele>303.74</ele>
        <time>2015-11-11T11:01:27Z</time>
      </trkpt>
      <trkpt lat="44.55267" lon="1.78962">
        <ele>302.09</ele>
        <time>2015-11-11T11:02:11Z</time>
      </trkpt>
      <trkpt lat="44.55252" lon="1.78948">
        <ele>309.26</ele>
        <time>2015-11-11T11:02:32Z</time>
      </trkpt>
      <trkpt lat="44.55233" lon="1.78945">
        <ele>309.36</ele>
        <time>2015-11-11T11:02:49Z</time>
      </trkpt>
      <trkpt lat="44.55215" lon="1.78954">
        <ele>304.62</ele>
        <time>2015-11-11T11:03:06Z</time>
      </trkpt>
      <trkpt lat="44.55197" lon="1.78967">
        <ele>298.32</ele>
        <time>2015-11-11T11:03:21Z</time>
      </trkpt>
      <trkpt lat="44.5518" lon="1.78975">
        <ele>298.61</ele>
        <time>2015-11-11T11:03:46Z</time>
      </trkpt>
      <trkpt lat="44.55162" lon="1.78966">
        <ele>299.88</ele>
        <time>2015-11-11T11:03:52Z</time>
      </trkpt>
      <trkpt lat="44.55144" lon="1.78956">
        <ele>300.43</ele>
        <time>2015-11-11T11:04:08Z</time>
      </trkpt>
      <trkpt lat="44.55127" lon="1.78945">
        <ele>302.61</ele>
        <time>2015-11-11T11:04:31Z</time>
      </trkpt>
      <trkpt lat="44.55109" lon="1.78933">
        <ele>301.22</ele>
        <time>2015-11-11T11:04:42Z</time>
      </trkpt>
      <trkpt lat="44.55091" lon="1.78925">
        <ele>297.74</ele>
        <time>2015-11-11T11:05:07Z</time>
      </trkpt>
      <trkpt lat="44.55073" lon="1.78916">
        <ele>294.84</ele>
        <time>2015-11-11T11:05:20Z</time>
      </trkpt>
      <trkpt lat="44.55054" lon="1.78917">
        <ele>288.78</ele>
        <time>2015-11-11T11:05:40Z</time>
      </trkpt>
      <trkpt lat="44.55036" lon="1.78927">
        <ele>291.12</ele>
        <time>2015-11-11T11:05:53Z</time>
      </trkpt>
      <trkpt lat="44.55019" lon="1.78937">
        <ele>287.89</ele>
        <time>2015-11-11T11:06:07Z</time>
      </trkpt>
      <trkpt lat="44.55015" lon="1.78963">
        <ele>290.8</ele>
        <time>2015-11-11T11:06:25Z</time>
      </trkpt>
      <trkpt lat="44.5502" lon="1.78988">
        <ele>287.77</ele>
        <time>2015-11-11T11:06:49Z</time>
      </trkpt>
      <trkpt lat="44.55024" lon="1.79014">
        <ele>284.22</ele>
        <time>2015-11-11T11:07:03Z</time>
      </trkpt>
      <trkpt lat="44.55033" lon="1.79039">
        <ele>287.23</ele>
        <time>2015-11-11T11:07:16Z</time>
      </trkpt>
      <trkpt lat="44.55033" lon="1.79066">
        <ele>279.3</ele>
        <time>2015-11-11T11:07:32Z</time>
      </trkpt>
      <trkpt lat="44.55014" lon="1.79066">
        <ele>281.31</ele>
        <time>2015-11-11T11:07:51Z</time>
      </trkpt>
      <trkpt lat="44.54997" lon="1.79077">
        <ele>277.39</ele>
        <time>2015-11-11T11:08:12Z</time>
      </trkpt>
      <trkpt lat="44.54979" lon="1.79073">
        <ele>274.18</ele>
        <time>2015-11-11T11:08:25Z</time>
      </trkpt>
      <trkpt lat="44.54961" lon="1.79067">
        <ele>272.24</ele>
        <time>2015-11-11T11:08:45Z</time>
      </trkpt>
      <trkpt lat="44.54942" lon="1.79068">
        <ele>275.09</ele>
        <time>2015-11-11T11:08:56Z</time>
      </trkpt>
      <trkpt lat="44.54929" lon="1.79088">
        <ele>270.55</ele>
        <time>2015-11-11T11:10:09Z</time>
      </trkpt>
      <trkpt lat="44.54931" lon="1.79115">
        <ele>270.27</ele>
        <time>2015-11-11T11:10:25Z</time>
      </trkpt>
      <trkpt lat="44.5493" lon="1.79142">
        <ele>270.25</ele>
        <time>2015-11-11T11:10:38Z</time>
      </trkpt>
      <trkpt lat="44.54929" lon="1.79168">
        <ele>267.33</ele>
        <time>2015-11-11T11:10:58Z</time>
      </trkpt>
      <trkpt lat="44.54923" lon="1.79193">
        <ele>274.85</ele>
        <time>2015-11-11T11:11:15Z</time>
      </trkpt>
      <trkpt lat="44.54906" lon="1.79179">
        <ele>273.37</ele>
        <time>2015-11-11T11:13:34Z</time>
      </trkpt>
      <trkpt lat="44.54894" lon="1.7916">
        <ele>277.71</ele>
        <time>2015-11-11T11:13:53Z</time>
      </trkpt>
      <trkpt lat="44.54879" lon="1.79145">
        <ele>285.78</ele>
        <time>2015-11-11T11:14:08Z</time>
      </trkpt>
      <trkpt lat="44.54867" lon="1.79125">
        <ele>285.28</ele>
        <time>2015-11-11T11:14:23Z</time>
      </trkpt>
      <trkpt lat="44.5485" lon="1.79109">
        <ele>288.3</ele>
        <time>2015-11-11T11:14:36Z</time>
      </trkpt>
      <trkpt lat="44.54837" lon="1.79089">
        <ele>284.73</ele>
        <time>2015-11-11T11:14:53Z</time>
      </trkpt>
      <trkpt lat="44.54821" lon="1.79075">
        <ele>278.04</ele>
        <time>2015-11-11T11:15:08Z</time>
      </trkpt>
      <trkpt lat="44.54808" lon="1.79054">
        <ele>273.23</ele>
        <time>2015-11-11T11:15:18Z</time>
      </trkpt>
      <trkpt lat="44.54796" lon="1.79034">
        <ele>270.72</ele>
        <time>2015-11-11T11:15:32Z</time>
      </trkpt>
      <trkpt lat="44.54793" lon="1.79008">
        <ele>272.59</ele>
        <time>2015-11-11T11:15:48Z</time>
      </trkpt>
      <trkpt lat="44.54799" lon="1.78984">
        <ele>276.61</ele>
        <time>2015-11-11T11:16:04Z</time>
      </trkpt>
      <trkpt lat="44.54803" lon="1.78959">
        <ele>272.07</ele>
        <time>2015-11-11T11:16:18Z</time>
      </trkpt>
      <trkpt lat="44.54816" lon="1.7894">
        <ele>275.67</ele>
        <time>2015-11-11T11:16:32Z</time>
      </trkpt>
      <trkpt lat="44.54808" lon="1.78913">
        <ele>276.87</ele>
        <time>2015-11-11T11:16:45Z</time>
      </trkpt>
      <trkpt lat="44.54797" lon="1.78893">
        <ele>268.58</ele>
        <time>2015-11-11T11:17:59Z</time>
      </trkpt>
      <trkpt lat="44.54783" lon="1.78873">
        <ele>263.88</ele>
        <time>2015-11-11T11:18:18Z</time>
      </trkpt>
      <trkpt lat="44.54776" lon="1.78849">
        <ele>265.17</ele>
        <time>2015-11-11T11:18:33Z</time>
      </trkpt>
      <trkpt lat="44.54772" lon="1.78822">
        <ele>260.9</ele>
        <time>2015-11-11T11:18:53Z</time>
      </trkpt>
      <trkpt lat="44.54762" lon="1.78797">
        <ele>264.19</ele>
        <time>2015-11-11T11:19:10Z</time>
      </trkpt>
      <trkpt lat="44.54752" lon="1.78776">
        <ele>268.61</ele>
        <time>2015-11-11T11:19:31Z</time>
      </trkpt>
      <trkpt lat="44.54741" lon="1.78755">
        <ele>270.25</ele>
        <time>2015-11-11T11:19:43Z</time>
      </trkpt>
      <trkpt lat="44.54729" lon="1.78734">
        <ele>263.44</ele>
        <time>2015-11-11T11:19:54Z</time>
      </trkpt>
      <trkpt lat="44.54719" lon="1.78713">
        <ele>267.7</ele>
        <time>2015-11-11T11:20:10Z</time>
      </trkpt>
      <trkpt lat="44.54713" lon="1.78689">
        <ele>267.2</ele>
        <time>2015-11-11T11:20:24Z</time>
      </trkpt>
      <trkpt lat="44.54704" lon="1.78664">
        <ele>267.88</ele>
        <time>2015-11-11T11:20:52Z</time>
      </trkpt>
      <trkpt lat="44.54694" lon="1.78642">
        <ele>266.05</ele>
        <time>2015-11-11T11:21:01Z</time>
      </trkpt>
      <trkpt lat="44.54685" lon="1.78618">
        <ele>263.98</ele>
        <time>2015-11-11T11:21:18Z</time>
      </trkpt>
      <trkpt lat="44.54684" lon="1.78592">
        <ele>262.75</ele>
        <time>2015-11-11T11:21:34Z</time>
      </trkpt>
      <trkpt lat="44.54691" lon="1.78568">
        <ele>259.89</ele>
        <time>2015-11-11T11:21:47Z</time>
      </trkpt>
      <trkpt lat="44.5471" lon="1.78565">
        <ele>255.76</ele>
        <time>2015-11-11T11:21:56Z</time>
      </trkpt>
      <trkpt lat="44.54714" lon="1.7854">
        <ele>250.61</ele>
        <time>2015-11-11T11:22:09Z</time>
      </trkpt>
      <trkpt lat="44.54707" lon="1.78515">
        <ele>248.86</ele>
        <time>2015-11-11T11:22:25Z</time>
      </trkpt>
      <trkpt lat="44.54703" lon="1.7849">
        <ele>250.77</ele>
        <time>2015-11-11T11:22:38Z</time>
      </trkpt>
      <trkpt lat="44.54701" lon="1.78465">
        <ele>252.78</ele>
        <time>2015-11-11T11:22:56Z</time>
      </trkpt>
      <trkpt lat="44.54701" lon="1.78439">
        <ele>251.28</ele>
        <time>2015-11-11T11:23:08Z</time>
      </trkpt>
      <trkpt lat="44.547" lon="1.78412">
        <ele>254.86</ele>
        <time>2015-11-11T11:23:23Z</time>
      </trkpt>
      <trkpt lat="44.54701" lon="1.78386">
        <ele>254.62</ele>
        <time>2015-11-11T11:23:37Z</time>
      </trkpt>
      <trkpt lat="44.54703" lon="1.78361">
        <ele>258.31</ele>
        <time>2015-11-11T11:23:56Z</time>
      </trkpt>
      <trkpt lat="44.54693" lon="1.78338">
        <ele>262.21</ele>
        <time>2015-11-11T11:24:23Z</time>
      </trkpt>
      <trkpt lat="44.54675" lon="1.78335">
        <ele>253.79</ele>
        <time>2015-11-11T11:24:48Z</time>
      </trkpt>
      <trkpt lat="44.54657" lon="1.78342">
        <ele>244.28</ele>
        <time>2015-11-11T11:25:07Z</time>
      </trkpt>
      <trkpt lat="44.54641" lon="1.78356">
        <ele>243.86</ele>
        <time>2015-11-11T11:25:24Z</time>
      </trkpt>
      <trkpt lat="44.54629" lon="1.78375">
        <ele>249.15</ele>
        <time>2015-11-11T11:25:34Z</time>
      </trkpt>
      <trkpt lat="44.54612" lon="1.78391">
        <ele>250.96</ele>
        <time>2015-11-11T11:25:52Z</time>
      </trkpt>
      <trkpt lat="44.54593" lon="1.78388">
        <ele>252.74</ele>
        <time>2015-11-11T11:26:08Z</time>
      </trkpt>
      <trkpt lat="44.54574" lon="1.78392">
        <ele>259.64</ele>
        <time>2015-11-11T11:26:31Z</time>
      </trkpt>
      <trkpt lat="44.54557" lon="1.784">
        <ele>264.77</ele>
        <time>2015-11-11T11:26:46Z</time>
      </trkpt>
      <trkpt lat="44.54539" lon="1.78397">
        <ele>266.57</ele>
        <time>2015-11-11T11:27:05Z</time>
      </trkpt>
      <trkpt lat="44.54521" lon="1.78386">
        <ele>267.02</ele>
        <time>2015-11-11T11:27:20Z</time>
      </trkpt>
      <trkpt lat="44.54504" lon="1.78374">
        <ele>264.67</ele>
        <time>2015-11-11T11:27:33Z</time>
      </trkpt>
      <trkpt lat="44.54489" lon="1.78359">
        <ele>266.73</ele>
        <time>2015-11-11T11:27:49Z</time>
      </trkpt>
      <trkpt lat="44.54472" lon="1.7835">
        <ele>270.17</ele>
        <time>2015-11-11T11:28:04Z</time>
      </trkpt>
      <trkpt lat="44.54456" lon="1.78334">
        <ele>262.99</ele>
        <time>2015-11-11T11:28:19Z</time>
      </trkpt>
      <trkpt lat="44.54444" lon="1.78314">
        <ele>259.03</ele>
        <time>2015-11-11T11:28:31Z</time>
      </trkpt>
      <trkpt lat="44.54431" lon="1.78294">
        <ele>260.03</ele>
        <time>2015-11-11T11:28:45Z</time>
      </trkpt>
      <trkpt lat="44.54414" lon="1.78286">
        <ele>258.11</ele>
        <time>2015-11-11T11:29:03Z</time>
      </trkpt>
      <trkpt lat="44.54395" lon="1.78294">
        <ele>255.02</ele>
        <time>2015-11-11T11:29:19Z</time>
      </trkpt>
      <trkpt lat="44.54378" lon="1.78287">
        <ele>256.98</ele>
        <time>2015-11-11T11:29:29Z</time>
      </trkpt>
      <trkpt lat="44.5436" lon="1.78279">
        <ele>254.08</ele>
        <time>2015-11-11T11:29:42Z</time>
      </trkpt>
      <trkpt lat="44.54342" lon="1.78268">
        <ele>254.36</ele>
        <time>2015-11-11T11:29:53Z</time>
      </trkpt>
      <trkpt lat="44.54322" lon="1.7827">
        <ele>252.73</ele>
        <time>2015-11-11T11:31:03Z</time>
      </trkpt>
      <trkpt lat="44.54306" lon="1.78282">
        <ele>257.91</ele>
        <time>2015-11-11T11:31:15Z</time>
      </trkpt>
      <trkpt lat="44.54291" lon="1.78296">
        <ele>260.42</ele>
        <time>2015-11-11T11:31:30Z</time>
      </trkpt>
      <trkpt lat="44.54278" lon="1.78314">
        <ele>260.24</ele>
        <time>2015-11-11T11:31:42Z</time>
      </trkpt>
      <trkpt lat="44.54261" lon="1.78325">
        <ele>258.72</ele>
        <time>2015-11-11T11:31:58Z</time>
      </trkpt>
      <trkpt lat="44.54244" lon="1.78332">
        <ele>261.65</ele>
        <time>2015-11-11T11:32:12Z</time>
      </trkpt>
      <trkpt lat="44.54228" lon="1.78349">
        <ele>259.2</ele>
        <time>2015-11-11T11:32:26Z</time>
      </trkpt>
      <trkpt lat="44.54209" lon="1.78354">
        <ele>256.73</ele>
        <time>2015-11-11T11:32:44Z</time>
      </trkpt>
      <trkpt lat="44.54199" lon="1.78332">
        <ele>256.07</ele>
        <time>2015-11-11T11:32:55Z</time>
      </trkpt>
      <trkpt lat="44.5418" lon="1.78328">
        <ele>261.62</ele>
        <time>2015-11-11T11:33:18Z</time>
      </trkpt>
      <trkpt lat="44.54161" lon="1.78334">
        <ele>268.79</ele>
        <time>2015-11-11T11:33:45Z</time>
      </trkpt>
      <trkpt lat="44.54143" lon="1.78333">
        <ele>266.58</ele>
        <time>2015-11-11T11:34:03Z</time>
      </trkpt>
      <trkpt lat="44.54125" lon="1.78328">
        <ele>266.21</ele>
        <time>2015-11-11T11:34:23Z</time>
      </trkpt>
      <trkpt lat="44.54107" lon="1.7834">
        <ele>270.24</ele>
        <time>2015-11-11T11:34:49Z</time>
      </trkpt>
      <trkpt lat="44.54085" lon="1.78341">
        <ele>277.05</ele>
        <time>2015-11-11T11:35:07Z</time>
      </trkpt>
      <trkpt lat="44.54065" lon="1.78345">
        <ele>265.44</ele>
        <time>2015-11-11T11:35:20Z</time>
      </trkpt>
      <trkpt lat="44.54048" lon="1.78334">
        <ele>274.92</ele>
        <time>2015-11-11T11:35:37Z</time>
      </trkpt>
      <trkpt lat="44.54036" lon="1.78313">
        <ele>277.65</ele>
        <time>2015-11-11T11:35:51Z</time>
      </trkpt>
      <trkpt lat="44.54018" lon="1.78308">
        <ele>276.73</ele>
        <time>2015-11-11T11:36:07Z</time>
      </trkpt>
      <trkpt lat="44.54" lon="1.78303">
        <ele>272.69</ele>
        <time>2015-11-11T11:36:17Z</time>
      </trkpt>
      <trkpt lat="44.53981" lon="1.783">
        <ele>279.16</ele>
        <time>2015-11-11T11:36:38Z</time>
      </trkpt>
      <trkpt lat="44.53963" lon="1.78304">
        <ele>283.79</ele>
        <time>2015-11-11T11:36:56Z</time>
      </trkpt>
      <trkpt lat="44.53945" lon="1.78294">
        <ele>283.48</ele>
        <time>2015-11-11T11:37:09Z</time>
      </trkpt>
      <trkpt lat="44.53928" lon="1.78285">
        <ele>283.38</ele>
        <time>2015-11-11T11:37:21Z</time>
      </trkpt>
      <trkpt lat="44.5391" lon="1.78281">
        <ele>283.17</ele>
        <time>2015-11-11T11:37:33Z</time>
      </trkpt>
      <trkpt lat="44.53893" lon="1.78273">
        <ele>285.66</ele>
        <time>2015-11-11T11:37:56Z</time>
      </trkpt>
      <trkpt lat="44.53879" lon="1.78256">
        <ele>282.01</ele>
        <time>2015-11-11T11:38:13Z</time>
      </trkpt>
      <trkpt lat="44.53879" lon="1.7823">
        <ele>283.85</ele>
        <time>2015-11-11T11:38:28Z</time>
      </trkpt>
      <trkpt lat="44.53876" lon="1.78205">
        <ele>281.47</ele>
        <time>2015-11-11T11:38:42Z</time>
      </trkpt>
      <trkpt lat="44.53883" lon="1.7818">
        <ele>295.61</ele>
        <time>2015-11-11T11:38:57Z</time>
      </trkpt>
      <trkpt lat="44.53887" lon="1.78155">
        <ele>295.1</ele>
        <time>2015-11-11T11:39:11Z</time>
      </trkpt>
      <trkpt lat="44.53882" lon="1.78129">
        <ele>299.69</ele>
        <time>2015-11-11T11:40:07Z</time>
      </trkpt>
      <trkpt lat="44.53872" lon="1.78108">
        <ele>287.64</ele>
        <time>2015-11-11T11:40:24Z</time>
      </trkpt>
      <trkpt lat="44.53864" lon="1.78085">
        <ele>291.59</ele>
        <time>2015-11-11T11:40:35Z</time>
      </trkpt>
      <trkpt lat="44.53856" lon="1.78062">
        <ele>290.58</ele>
        <time>2015-11-11T11:40:52Z</time>
      </trkpt>
      <trkpt lat="44.53854" lon="1.78035">
        <ele>292.91</ele>
        <time>2015-11-11T11:41:06Z</time>
      </trkpt>
      <trkpt lat="44.53844" lon="1.78012">
        <ele>293.51</ele>
        <time>2015-11-11T11:41:21Z</time>
      </trkpt>
      <trkpt lat="44.53848" lon="1.77985">
        <ele>290.87</ele>
        <time>2015-11-11T11:41:34Z</time>
      </trkpt>
      <trkpt lat="44.53849" lon="1.77958">
        <ele>298.06</ele>
        <time>2015-11-11T11:41:49Z</time>
      </trkpt>
      <trkpt lat="44.53851" lon="1.77933">
        <ele>299.11</ele>
        <time>2015-11-11T11:42:04Z</time>
      </trkpt>
      <trkpt lat="44.53858" lon="1.77867">
        <ele>304.99</ele>
        <time>2015-11-11T11:42:43Z</time>
      </trkpt>
      <trkpt lat="44.53857" lon="1.77841">
        <ele>306.59</ele>
        <time>2015-11-11T11:43:01Z</time>
      </trkpt>
      <trkpt lat="44.53849" lon="1.77818">
        <ele>311.41</ele>
        <time>2015-11-11T11:43:17Z</time>
      </trkpt>
      <trkpt lat="44.53848" lon="1.77792">
        <ele>312.72</ele>
        <time>2015-11-11T11:43:31Z</time>
      </trkpt>
      <trkpt lat="44.53845" lon="1.77767">
        <ele>310.87</ele>
        <time>2015-11-11T11:43:49Z</time>
      </trkpt>
      <trkpt lat="44.53846" lon="1.77742">
        <ele>310.76</ele>
        <time>2015-11-11T11:44:03Z</time>
      </trkpt>
      <trkpt lat="44.53845" lon="1.77716">
        <ele>313.85</ele>
        <time>2015-11-11T11:44:16Z</time>
      </trkpt>
      <trkpt lat="44.5383" lon="1.77702">
        <ele>310.18</ele>
        <time>2015-11-11T11:44:29Z</time>
      </trkpt>
      <trkpt lat="44.5382" lon="1.77681">
        <ele>307.98</ele>
        <time>2015-11-11T11:44:45Z</time>
      </trkpt>
      <trkpt lat="44.53811" lon="1.77658">
        <ele>302.56</ele>
        <time>2015-11-11T11:45:00Z</time>
      </trkpt>
      <trkpt lat="44.53801" lon="1.77635">
        <ele>298.47</ele>
        <time>2015-11-11T11:45:16Z</time>
      </trkpt>
      <trkpt lat="44.53789" lon="1.77615">
        <ele>298.03</ele>
        <time>2015-11-11T11:45:33Z</time>
      </trkpt>
      <trkpt lat="44.53778" lon="1.77595">
        <ele>301.62</ele>
        <time>2015-11-11T11:45:49Z</time>
      </trkpt>
      <trkpt lat="44.53767" lon="1.77576">
        <ele>292.11</ele>
        <time>2015-11-11T11:46:01Z</time>
      </trkpt>
      <trkpt lat="44.53753" lon="1.77558">
        <ele>296.91</ele>
        <time>2015-11-11T11:46:21Z</time>
      </trkpt>
      <trkpt lat="44.53734" lon="1.77548">
        <ele>297.16</ele>
        <time>2015-11-11T11:46:35Z</time>
      </trkpt>
      <trkpt lat="44.53719" lon="1.77534">
        <ele>294.11</ele>
        <time>2015-11-11T11:46:53Z</time>
      </trkpt>
      <trkpt lat="44.53707" lon="1.77513">
        <ele>292.47</ele>
        <time>2015-11-11T11:47:18Z</time>
      </trkpt>
      <trkpt lat="44.53693" lon="1.77497">
        <ele>292.38</ele>
        <time>2015-11-11T11:47:32Z</time>
      </trkpt>
      <trkpt lat="44.53681" lon="1.77478">
        <ele>294.73</ele>
        <time>2015-11-11T11:47:47Z</time>
      </trkpt>
      <trkpt lat="44.53666" lon="1.77462">
        <ele>298.44</ele>
        <time>2015-11-11T11:48:04Z</time>
      </trkpt>
      <trkpt lat="44.53649" lon="1.7745">
        <ele>296.53</ele>
        <time>2015-11-11T11:48:18Z</time>
      </trkpt>
      <trkpt lat="44.53635" lon="1.77432">
        <ele>295.28</ele>
        <time>2015-11-11T11:48:35Z</time>
      </trkpt>
      <trkpt lat="44.53621" lon="1.77415">
        <ele>291.72</ele>
        <time>2015-11-11T11:49:17Z</time>
      </trkpt>
      <trkpt lat="44.53626" lon="1.7739">
        <ele>295.2</ele>
        <time>2015-11-11T11:49:31Z</time>
      </trkpt>
      <trkpt lat="44.53625" lon="1.77363">
        <ele>296.83</ele>
        <time>2015-11-11T11:49:49Z</time>
      </trkpt>
      <trkpt lat="44.53625" lon="1.7739">
        <ele>291.3</ele>
        <time>2015-11-11T11:50:19Z</time>
      </trkpt>
      <trkpt lat="44.53622" lon="1.77417">
        <ele>295.79</ele>
        <time>2015-11-11T11:50:50Z</time>
      </trkpt>
      <trkpt lat="44.53608" lon="1.77432">
        <ele>293.62</ele>
        <time>2015-11-11T11:51:06Z</time>
      </trkpt>
      <trkpt lat="44.53591" lon="1.77442">
        <ele>292.01</ele>
        <time>2015-11-11T11:51:18Z</time>
      </trkpt>
      <trkpt lat="44.53573" lon="1.77452">
        <ele>290.59</ele>
        <time>2015-11-11T11:51:34Z</time>
      </trkpt>
      <trkpt lat="44.53555" lon="1.77452">
        <ele>290.13</ele>
        <time>2015-11-11T11:51:51Z</time>
      </trkpt>
      <trkpt lat="44.53536" lon="1.77454">
        <ele>289.09</ele>
        <time>2015-11-11T11:52:02Z</time>
      </trkpt>
      <trkpt lat="44.53517" lon="1.77454">
        <ele>285.5</ele>
        <time>2015-11-11T11:52:24Z</time>
      </trkpt>
      <trkpt lat="44.53496" lon="1.77454">
        <ele>286.9</ele>
        <time>2015-11-11T11:52:39Z</time>
      </trkpt>
      <trkpt lat="44.53478" lon="1.77445">
        <ele>285.54</ele>
        <time>2015-11-11T11:53:01Z</time>
      </trkpt>
      <trkpt lat="44.5346" lon="1.77437">
        <ele>285.22</ele>
        <time>2015-11-11T11:53:53Z</time>
      </trkpt>
      <trkpt lat="44.53442" lon="1.77434">
        <ele>288.05</ele>
        <time>2015-11-11T11:54:08Z</time>
      </trkpt>
      <trkpt lat="44.53423" lon="1.77437">
        <ele>287.22</ele>
        <time>2015-11-11T11:54:28Z</time>
      </trkpt>
      <trkpt lat="44.53405" lon="1.77437">
        <ele>290.06</ele>
        <time>2015-11-11T11:54:44Z</time>
      </trkpt>
      <trkpt lat="44.53386" lon="1.77432">
        <ele>290.77</ele>
        <time>2015-11-11T11:55:08Z</time>
      </trkpt>
      <trkpt lat="44.53369" lon="1.7742">
        <ele>290.65</ele>
        <time>2015-11-11T11:55:17Z</time>
      </trkpt>
      <trkpt lat="44.53354" lon="1.77405">
        <ele>287.07</ele>
        <time>2015-11-11T11:55:35Z</time>
      </trkpt>
      <trkpt lat="44.53336" lon="1.77395">
        <ele>284.31</ele>
        <time>2015-11-11T11:56:03Z</time>
      </trkpt>
      <trkpt lat="44.5332" lon="1.77381">
        <ele>278.78</ele>
        <time>2015-11-11T11:56:16Z</time>
      </trkpt>
      <trkpt lat="44.53304" lon="1.77369">
        <ele>276.56</ele>
        <time>2015-11-11T11:56:28Z</time>
      </trkpt>
      <trkpt lat="44.53285" lon="1.77362">
        <ele>278.53</ele>
        <time>2015-11-11T11:56:43Z</time>
      </trkpt>
      <trkpt lat="44.53267" lon="1.77357">
        <ele>277.4</ele>
        <time>2015-11-11T11:57:09Z</time>
      </trkpt>
      <trkpt lat="44.53249" lon="1.7735">
        <ele>276.1</ele>
        <time>2015-11-11T11:57:21Z</time>
      </trkpt>
      <trkpt lat="44.53231" lon="1.77348">
        <ele>279.19</ele>
        <time>2015-11-11T11:57:37Z</time>
      </trkpt>
      <trkpt lat="44.53214" lon="1.7734">
        <ele>283.85</ele>
        <time>2015-11-11T11:57:55Z</time>
      </trkpt>
      <trkpt lat="44.53195" lon="1.77339">
        <ele>279.51</ele>
        <time>2015-11-11T11:58:18Z</time>
      </trkpt>
      <trkpt lat="44.5318" lon="1.77326">
        <ele>277.44</ele>
        <time>2015-11-11T11:58:51Z</time>
      </trkpt>
      <trkpt lat="44.53162" lon="1.77321">
        <ele>276.32</ele>
        <time>2015-11-11T11:59:18Z</time>
      </trkpt>
      <trkpt lat="44.53145" lon="1.77312">
        <ele>275.06</ele>
        <time>2015-11-11T11:59:37Z</time>
      </trkpt>
      <trkpt lat="44.53126" lon="1.77301">
        <ele>279.53</ele>
        <time>2015-11-11T11:59:55Z</time>
      </trkpt>
      <trkpt lat="44.53112" lon="1.77285">
        <ele>281</ele>
        <time>2015-11-11T12:00:06Z</time>
      </trkpt>
      <trkpt lat="44.53096" lon="1.7727">
        <ele>282.16</ele>
        <time>2015-11-11T12:00:13Z</time>
      </trkpt>
      <trkpt lat="44.5308" lon="1.77259">
        <ele>277.76</ele>
        <time>2015-11-11T12:00:41Z</time>
      </trkpt>
      <trkpt lat="44.53063" lon="1.77249">
        <ele>276.79</ele>
        <time>2015-11-11T12:00:53Z</time>
      </trkpt>
      <trkpt lat="44.53047" lon="1.77235">
        <ele>276.01</ele>
        <time>2015-11-11T12:01:14Z</time>
      </trkpt>
      <trkpt lat="44.5303" lon="1.77223">
        <ele>274.03</ele>
        <time>2015-11-11T12:01:27Z</time>
      </trkpt>
      <trkpt lat="44.53015" lon="1.77209">
        <ele>272.36</ele>
        <time>2015-11-11T12:01:55Z</time>
      </trkpt>
      <trkpt lat="44.52998" lon="1.77197">
        <ele>267.69</ele>
        <time>2015-11-11T12:02:10Z</time>
      </trkpt>
      <trkpt lat="44.5298" lon="1.77207">
        <ele>265.1</ele>
        <time>2015-11-11T12:02:24Z</time>
      </trkpt>
      <trkpt lat="44.52961" lon="1.77206">
        <ele>265.74</ele>
        <time>2015-11-11T12:02:39Z</time>
      </trkpt>
      <trkpt lat="44.52948" lon="1.77187">
        <ele>266.6</ele>
        <time>2015-11-11T12:02:55Z</time>
      </trkpt>
      <trkpt lat="44.52944" lon="1.77161">
        <ele>265.16</ele>
        <time>2015-11-11T12:03:09Z</time>
      </trkpt>
      <trkpt lat="44.52935" lon="1.77139">
        <ele>260.79</ele>
        <time>2015-11-11T12:03:24Z</time>
      </trkpt>
      <trkpt lat="44.52927" lon="1.77116">
        <ele>261.72</ele>
        <time>2015-11-11T12:03:39Z</time>
      </trkpt>
      <trkpt lat="44.52923" lon="1.77091">
        <ele>260.5</ele>
        <time>2015-11-11T12:03:55Z</time>
      </trkpt>
      <trkpt lat="44.52924" lon="1.77064">
        <ele>259.63</ele>
        <time>2015-11-11T12:04:14Z</time>
      </trkpt>
      <trkpt lat="44.52931" lon="1.77041">
        <ele>260.87</ele>
        <time>2015-11-11T12:05:31Z</time>
      </trkpt>
      <trkpt lat="44.52943" lon="1.7702">
        <ele>262.95</ele>
        <time>2015-11-11T12:05:50Z</time>
      </trkpt>
      <trkpt lat="44.52947" lon="1.76995">
        <ele>264.97</ele>
        <time>2015-11-11T12:06:03Z</time>
      </trkpt>
      <trkpt lat="44.5294" lon="1.76972">
        <ele>264.78</ele>
        <time>2015-11-11T12:06:47Z</time>
      </trkpt>
      <trkpt lat="44.5294" lon="1.76944">
        <ele>266.48</ele>
        <time>2015-11-11T12:06:59Z</time>
      </trkpt>
      <trkpt lat="44.52933" lon="1.76917">
        <ele>261.84</ele>
        <time>2015-11-11T12:07:18Z</time>
      </trkpt>
      <trkpt lat="44.52931" lon="1.76889">
        <ele>259.25</ele>
        <time>2015-11-11T12:07:31Z</time>
      </trkpt>
      <trkpt lat="44.52924" lon="1.76865">
        <ele>259.14</ele>
        <time>2015-11-11T12:07:45Z</time>
      </trkpt>
      <trkpt lat="44.5292" lon="1.76839">
        <ele>262.3</ele>
        <time>2015-11-11T12:08:03Z</time>
      </trkpt>
      <trkpt lat="44.52915" lon="1.76814">
        <ele>258.95</ele>
        <time>2015-11-11T12:08:15Z</time>
      </trkpt>
      <trkpt lat="44.52909" lon="1.7679">
        <ele>259.95</ele>
        <time>2015-11-11T12:08:31Z</time>
      </trkpt>
      <trkpt lat="44.52911" lon="1.76763">
        <ele>261.14</ele>
        <time>2015-11-11T12:08:53Z</time>
      </trkpt>
      <trkpt lat="44.52912" lon="1.76737">
        <ele>255.02</ele>
        <time>2015-11-11T12:09:05Z</time>
      </trkpt>
      <trkpt lat="44.5292" lon="1.76714">
        <ele>257.6</ele>
        <time>2015-11-11T12:09:17Z</time>
      </trkpt>
      <trkpt lat="44.52923" lon="1.76689">
        <ele>259.44</ele>
        <time>2015-11-11T12:09:30Z</time>
      </trkpt>
      <trkpt lat="44.5292" lon="1.7666">
        <ele>263.25</ele>
        <time>2015-11-11T12:10:32Z</time>
      </trkpt>
      <trkpt lat="44.52924" lon="1.76632">
        <ele>262.02</ele>
        <time>2015-11-11T12:10:41Z</time>
      </trkpt>
      <trkpt lat="44.52921" lon="1.76607">
        <ele>263.57</ele>
        <time>2015-11-11T12:10:54Z</time>
      </trkpt>
      <trkpt lat="44.52924" lon="1.76581">
        <ele>263.22</ele>
        <time>2015-11-11T12:11:11Z</time>
      </trkpt>
      <trkpt lat="44.52924" lon="1.76556">
        <ele>264.93</ele>
        <time>2015-11-11T12:11:23Z</time>
      </trkpt>
      <trkpt lat="44.52923" lon="1.7653">
        <ele>260.31</ele>
        <time>2015-11-11T12:11:40Z</time>
      </trkpt>
      <trkpt lat="44.52917" lon="1.76506">
        <ele>257.76</ele>
        <time>2015-11-11T12:11:51Z</time>
      </trkpt>
      <trkpt lat="44.5291" lon="1.76481">
        <ele>255.04</ele>
        <time>2015-11-11T12:12:07Z</time>
      </trkpt>
      <trkpt lat="44.52913" lon="1.76455">
        <ele>258.99</ele>
        <time>2015-11-11T12:12:20Z</time>
      </trkpt>
      <trkpt lat="44.52914" lon="1.76428">
        <ele>259.97</ele>
        <time>2015-11-11T12:12:35Z</time>
      </trkpt>
      <trkpt lat="44.52918" lon="1.76401">
        <ele>262.01</ele>
        <time>2015-11-11T12:12:52Z</time>
      </trkpt>
      <trkpt lat="44.52929" lon="1.76381">
        <ele>261.06</ele>
        <time>2015-11-11T12:13:09Z</time>
      </trkpt>
      <trkpt lat="44.52939" lon="1.76359">
        <ele>257.14</ele>
        <time>2015-11-11T12:13:34Z</time>
      </trkpt>
      <trkpt lat="44.52946" lon="1.76333">
        <ele>256</ele>
        <time>2015-11-11T12:13:45Z</time>
      </trkpt>
      <trkpt lat="44.52949" lon="1.76308">
        <ele>251.71</ele>
        <time>2015-11-11T12:14:07Z</time>
      </trkpt>
      <trkpt lat="44.52956" lon="1.76283">
        <ele>246.37</ele>
        <time>2015-11-11T12:14:18Z</time>
      </trkpt>
      <trkpt lat="44.52967" lon="1.76262">
        <ele>240.84</ele>
        <time>2015-11-11T12:14:31Z</time>
      </trkpt>
      <trkpt lat="44.52969" lon="1.76236">
        <ele>238.36</ele>
        <time>2015-11-11T12:14:49Z</time>
      </trkpt>
      <trkpt lat="44.52986" lon="1.76223">
        <ele>239.49</ele>
        <time>2015-11-11T12:15:22Z</time>
      </trkpt>
      <trkpt lat="44.53003" lon="1.7621">
        <ele>239.7</ele>
        <time>2015-11-11T12:15:30Z</time>
      </trkpt>
      <trkpt lat="44.53015" lon="1.76188">
        <ele>237.1</ele>
        <time>2015-11-11T12:15:58Z</time>
      </trkpt>
      <trkpt lat="44.53029" lon="1.76171">
        <ele>228.22</ele>
        <time>2015-11-11T12:16:11Z</time>
      </trkpt>
      <trkpt lat="44.53046" lon="1.76157">
        <ele>230.16</ele>
        <time>2015-11-11T12:16:38Z</time>
      </trkpt>
      <trkpt lat="44.5306" lon="1.76138">
        <ele>227.54</ele>
        <time>2015-11-11T12:16:54Z</time>
      </trkpt>
      <trkpt lat="44.5307" lon="1.76116">
        <ele>229.83</ele>
        <time>2015-11-11T12:17:06Z</time>
      </trkpt>
      <trkpt lat="44.53071" lon="1.7609">
        <ele>232.55</ele>
        <time>2015-11-11T12:17:21Z</time>
      </trkpt>
      <trkpt lat="44.53066" lon="1.76064">
        <ele>237.52</ele>
        <time>2015-11-11T12:17:46Z</time>
      </trkpt>
      <trkpt lat="44.53076" lon="1.7604">
        <ele>235.53</ele>
        <time>2015-11-11T12:17:59Z</time>
      </trkpt>
      <trkpt lat="44.53067" lon="1.76013">
        <ele>220.34</ele>
        <time>2015-11-11T12:18:15Z</time>
      </trkpt>
      <trkpt lat="44.53072" lon="1.75987">
        <ele>222.65</ele>
        <time>2015-11-11T12:18:26Z</time>
      </trkpt>
      <trkpt lat="44.53076" lon="1.75959">
        <ele>217.71</ele>
        <time>2015-11-11T12:18:45Z</time>
      </trkpt>
      <trkpt lat="44.53066" lon="1.75935">
        <ele>215.03</ele>
        <time>2015-11-11T12:19:00Z</time>
      </trkpt>
      <trkpt lat="44.53063" lon="1.7591">
        <ele>215.56</ele>
        <time>2015-11-11T12:19:15Z</time>
      </trkpt>
      <trkpt lat="44.5305" lon="1.75886">
        <ele>209.27</ele>
        <time>2015-11-11T12:19:43Z</time>
      </trkpt>
      <trkpt lat="44.53044" lon="1.7586">
        <ele>207.44</ele>
        <time>2015-11-11T12:19:59Z</time>
      </trkpt>
      <trkpt lat="44.53036" lon="1.75837">
        <ele>201.99</ele>
        <time>2015-11-11T12:20:12Z</time>
      </trkpt>
      <trkpt lat="44.53033" lon="1.75809">
        <ele>199.67</ele>
        <time>2015-11-11T12:20:28Z</time>
      </trkpt>
      <trkpt lat="44.5303" lon="1.75782">
        <ele>202.28</ele>
        <time>2015-11-11T12:21:35Z</time>
      </trkpt>
      <trkpt lat="44.53033" lon="1.75756">
        <ele>195.7</ele>
        <time>2015-11-11T12:21:50Z</time>
      </trkpt>
      <trkpt lat="44.53024" lon="1.75732">
        <ele>188.94</ele>
        <time>2015-11-11T12:22:02Z</time>
      </trkpt>
      <trkpt lat="44.53026" lon="1.75707">
        <ele>191.49</ele>
        <time>2015-11-11T12:22:16Z</time>
      </trkpt>
      <trkpt lat="44.53034" lon="1.75683">
        <ele>184.1</ele>
        <time>2015-11-11T12:22:42Z</time>
      </trkpt>
      <trkpt lat="44.53041" lon="1.75655">
        <ele>189.8</ele>
        <time>2015-11-11T12:23:08Z</time>
      </trkpt>
      <trkpt lat="44.53042" lon="1.75629">
        <ele>185.72</ele>
        <time>2015-11-11T12:23:22Z</time>
      </trkpt>
      <trkpt lat="44.53051" lon="1.75606">
        <ele>186.84</ele>
        <time>2015-11-11T12:23:32Z</time>
      </trkpt>
      <trkpt lat="44.53058" lon="1.7558">
        <ele>185.81</ele>
        <time>2015-11-11T12:23:46Z</time>
      </trkpt>
      <trkpt lat="44.5306" lon="1.75554">
        <ele>180.83</ele>
        <time>2015-11-11T12:23:58Z</time>
      </trkpt>
      <trkpt lat="44.53066" lon="1.75529">
        <ele>183.85</ele>
        <time>2015-11-11T12:24:20Z</time>
      </trkpt>
      <trkpt lat="44.53064" lon="1.75504">
        <ele>185.66</ele>
        <time>2015-11-11T12:24:31Z</time>
      </trkpt>
      <trkpt lat="44.53064" lon="1.75478">
        <ele>176.24</ele>
        <time>2015-11-11T12:24:51Z</time>
      </trkpt>
      <trkpt lat="44.53072" lon="1.75455">
        <ele>176.88</ele>
        <time>2015-11-11T12:25:08Z</time>
      </trkpt>
      <trkpt lat="44.53085" lon="1.75435">
        <ele>178.39</ele>
        <time>2015-11-11T12:25:23Z</time>
      </trkpt>
      <trkpt lat="44.53093" lon="1.75411">
        <ele>175.87</ele>
        <time>2015-11-11T12:25:33Z</time>
      </trkpt>
      <trkpt lat="44.53093" lon="1.75385">
        <ele>175.28</ele>
        <time>2015-11-11T12:25:49Z</time>
      </trkpt>
      <trkpt lat="44.53107" lon="1.75404">
        <ele>161.39</ele>
        <time>2015-11-11T12:26:27Z</time>
      </trkpt>
      <trkpt lat="44.53126" lon="1.75409">
        <ele>163.87</ele>
        <time>2015-11-11T12:26:39Z</time>
      </trkpt>
      <trkpt lat="44.53135" lon="1.75386">
        <ele>153.64</ele>
        <time>2015-11-11T12:26:54Z</time>
      </trkpt>
      <trkpt lat="44.53152" lon="1.75374">
        <ele>151.98</ele>
        <time>2015-11-11T12:27:09Z</time>
      </trkpt>
      <trkpt lat="44.53167" lon="1.75357">
        <ele>150.29</ele>
        <time>2015-11-11T12:27:25Z</time>
      </trkpt>
      <trkpt lat="44.53184" lon="1.75347">
        <ele>147.76</ele>
        <time>2015-11-11T12:27:43Z</time>
      </trkpt>
      <trkpt lat="44.53201" lon="1.75336">
        <ele>143.12</ele>
        <time>2015-11-11T12:27:56Z</time>
      </trkpt>
      <trkpt lat="44.53218" lon="1.75325">
        <ele>143.52</ele>
        <time>2015-11-11T12:28:13Z</time>
      </trkpt>
      <trkpt lat="44.53236" lon="1.75321">
        <ele>149.15</ele>
        <time>2015-11-11T12:28:37Z</time>
      </trkpt>
      <trkpt lat="44.53255" lon="1.75319">
        <ele>148.35</ele>
        <time>2015-11-11T12:28:53Z</time>
      </trkpt>
      <trkpt lat="44.53275" lon="1.75319">
        <ele>146.45</ele>
        <time>2015-11-11T12:29:08Z</time>
      </trkpt>
      <trkpt lat="44.53294" lon="1.75317">
        <ele>146.02</ele>
        <time>2015-11-11T12:29:24Z</time>
      </trkpt>
      <trkpt lat="44.53313" lon="1.75317">
        <ele>146.95</ele>
        <time>2015-11-11T12:29:52Z</time>
      </trkpt>
      <trkpt lat="44.5333" lon="1.75308">
        <ele>149.65</ele>
        <time>2015-11-11T12:30:27Z</time>
      </trkpt>
      <trkpt lat="44.5335" lon="1.75307">
        <ele>153.92</ele>
        <time>2015-11-11T12:31:15Z</time>
      </trkpt>
      <trkpt lat="44.53365" lon="1.75293">
        <ele>150.9</ele>
        <time>2015-11-11T12:31:35Z</time>
      </trkpt>
      <trkpt lat="44.53372" lon="1.75269">
        <ele>146.46</ele>
        <time>2015-11-11T12:31:53Z</time>
      </trkpt>
      <trkpt lat="44.53381" lon="1.75246">
        <ele>144.73</ele>
        <time>2015-11-11T12:32:10Z</time>
      </trkpt>
      <trkpt lat="44.53389" lon="1.75221">
        <ele>137.46</ele>
        <time>2015-11-11T12:32:26Z</time>
      </trkpt>
      <trkpt lat="44.53403" lon="1.75203">
        <ele>137.32</ele>
        <time>2015-11-11T12:32:42Z</time>
      </trkpt>
      <trkpt lat="44.53414" lon="1.75182">
        <ele>135.17</ele>
        <time>2015-11-11T12:32:55Z</time>
      </trkpt>
      <trkpt lat="44.53422" lon="1.75159">
        <ele>137.88</ele>
        <time>2015-11-11T12:33:10Z</time>
      </trkpt>
      <trkpt lat="44.53429" lon="1.75135">
        <ele>133.4</ele>
        <time>2015-11-11T12:33:23Z</time>
      </trkpt>
      <trkpt lat="44.53433" lon="1.75105">
        <ele>134.9</ele>
        <time>2015-11-11T12:33:40Z</time>
      </trkpt>
      <trkpt lat="44.53442" lon="1.75082">
        <ele>137.44</ele>
        <time>2015-11-11T12:33:54Z</time>
      </trkpt>
      <trkpt lat="44.5345" lon="1.75059">
        <ele>137.07</ele>
        <time>2015-11-11T12:34:09Z</time>
      </trkpt>
      <trkpt lat="44.53459" lon="1.75036">
        <ele>141.56</ele>
        <time>2015-11-11T12:34:33Z</time>
      </trkpt>
      <trkpt lat="44.53467" lon="1.75013">
        <ele>143.16</ele>
        <time>2015-11-11T12:34:42Z</time>
      </trkpt>
      <trkpt lat="44.53474" lon="1.74989">
        <ele>149.13</ele>
        <time>2015-11-11T12:34:54Z</time>
      </trkpt>
      <trkpt lat="44.53481" lon="1.74965">
        <ele>149.44</ele>
        <time>2015-11-11T12:35:06Z</time>
      </trkpt>
      <trkpt lat="44.53492" lon="1.74943">
        <ele>140.8</ele>
        <time>2015-11-11T12:35:20Z</time>
      </trkpt>
      <trkpt lat="44.53499" lon="1.74918">
        <ele>145.56</ele>
        <time>2015-11-11T12:35:35Z</time>
      </trkpt>
      <trkpt lat="44.53503" lon="1.74893">
        <ele>143.48</ele>
        <time>2015-11-11T12:36:06Z</time>
      </trkpt>
      <trkpt lat="44.53505" lon="1.74866">
        <ele>146.72</ele>
        <time>2015-11-11T12:36:15Z</time>
      </trkpt>
      <trkpt lat="44.535" lon="1.74841">
        <ele>149.98</ele>
        <time>2015-11-11T12:37:30Z</time>
      </trkpt>
      <trkpt lat="44.53493" lon="1.74818">
        <ele>145.87</ele>
        <time>2015-11-11T12:37:46Z</time>
      </trkpt>
      <trkpt lat="44.5348" lon="1.748">
        <ele>146.7</ele>
        <time>2015-11-11T12:38:44Z</time>
      </trkpt>
      <trkpt lat="44.53467" lon="1.74781">
        <ele>145.35</ele>
        <time>2015-11-11T12:38:56Z</time>
      </trkpt>
      <trkpt lat="44.53452" lon="1.74764">
        <ele>145.09</ele>
        <time>2015-11-11T12:39:11Z</time>
      </trkpt>
      <trkpt lat="44.53437" lon="1.74744">
        <ele>146.04</ele>
        <time>2015-11-11T12:39:29Z</time>
      </trkpt>
      <trkpt lat="44.53419" lon="1.74736">
        <ele>151.24</ele>
        <time>2015-11-11T12:39:43Z</time>
      </trkpt>
      <trkpt lat="44.53406" lon="1.74718">
        <ele>151.22</ele>
        <time>2015-11-11T12:40:00Z</time>
      </trkpt>
      <trkpt lat="44.53401" lon="1.74693">
        <ele>143.79</ele>
        <time>2015-11-11T12:40:21Z</time>
      </trkpt>
      <trkpt lat="44.53385" lon="1.7468">
        <ele>145.4</ele>
        <time>2015-11-11T12:40:48Z</time>
      </trkpt>
      <trkpt lat="44.53369" lon="1.7467">
        <ele>145.88</ele>
        <time>2015-11-11T12:41:25Z</time>
      </trkpt>
      <trkpt lat="44.53355" lon="1.74651">
        <ele>147.76</ele>
        <time>2015-11-11T12:41:39Z</time>
      </trkpt>
      <trkpt lat="44.53342" lon="1.74634">
        <ele>148.05</ele>
        <time>2015-11-11T12:41:55Z</time>
      </trkpt>
      <trkpt lat="44.53325" lon="1.74621">
        <ele>148.58</ele>
        <time>2015-11-11T12:42:10Z</time>
      </trkpt>
      <trkpt lat="44.53312" lon="1.74603">
        <ele>149.55</ele>
        <time>2015-11-11T12:42:26Z</time>
      </trkpt>
      <trkpt lat="44.53295" lon="1.7459">
        <ele>148.63</ele>
        <time>2015-11-11T12:42:43Z</time>
      </trkpt>
      <trkpt lat="44.5328" lon="1.74574">
        <ele>151.62</ele>
        <time>2015-11-11T12:42:55Z</time>
      </trkpt>
      <trkpt lat="44.53268" lon="1.74553">
        <ele>148.85</ele>
        <time>2015-11-11T12:43:09Z</time>
      </trkpt>
      <trkpt lat="44.53255" lon="1.74535">
        <ele>146.86</ele>
        <time>2015-11-11T12:43:23Z</time>
      </trkpt>
      <trkpt lat="44.53244" lon="1.74515">
        <ele>146.46</ele>
        <time>2015-11-11T12:43:37Z</time>
      </trkpt>
      <trkpt lat="44.53228" lon="1.74502">
        <ele>147.72</ele>
        <time>2015-11-11T12:43:50Z</time>
      </trkpt>
      <trkpt lat="44.53213" lon="1.74483">
        <ele>148.77</ele>
        <time>2015-11-11T12:44:15Z</time>
      </trkpt>
      <trkpt lat="44.532" lon="1.74464">
        <ele>151.54</ele>
        <time>2015-11-11T12:44:29Z</time>
      </trkpt>
      <trkpt lat="44.53187" lon="1.74444">
        <ele>149.85</ele>
        <time>2015-11-11T12:44:42Z</time>
      </trkpt>
      <trkpt lat="44.53172" lon="1.74431">
        <ele>151.6</ele>
        <time>2015-11-11T12:44:57Z</time>
      </trkpt>
      <trkpt lat="44.5316" lon="1.74411">
        <ele>150.81</ele>
        <time>2015-11-11T12:45:10Z</time>
      </trkpt>
      <trkpt lat="44.53149" lon="1.74391">
        <ele>158.02</ele>
        <time>2015-11-11T12:45:25Z</time>
      </trkpt>
      <trkpt lat="44.53134" lon="1.74374">
        <ele>160.86</ele>
        <time>2015-11-11T12:45:43Z</time>
      </trkpt>
      <trkpt lat="44.53121" lon="1.74357">
        <ele>156.98</ele>
        <time>2015-11-11T12:45:55Z</time>
      </trkpt>
      <trkpt lat="44.5311" lon="1.74337">
        <ele>152.23</ele>
        <time>2015-11-11T12:46:07Z</time>
      </trkpt>
      <trkpt lat="44.53097" lon="1.74316">
        <ele>149.58</ele>
        <time>2015-11-11T12:46:21Z</time>
      </trkpt>
      <trkpt lat="44.53086" lon="1.74294">
        <ele>149.25</ele>
        <time>2015-11-11T12:46:42Z</time>
      </trkpt>
      <trkpt lat="44.53077" lon="1.74272">
        <ele>151.82</ele>
        <time>2015-11-11T12:46:55Z</time>
      </trkpt>
      <trkpt lat="44.53066" lon="1.7425">
        <ele>155.27</ele>
        <time>2015-11-11T12:47:13Z</time>
      </trkpt>
      <trkpt lat="44.53055" lon="1.74229">
        <ele>158.01</ele>
        <time>2015-11-11T12:47:26Z</time>
      </trkpt>
      <trkpt lat="44.53048" lon="1.74205">
        <ele>157.44</ele>
        <time>2015-11-11T12:47:40Z</time>
      </trkpt>
      <trkpt lat="44.5304" lon="1.74182">
        <ele>157.68</ele>
        <time>2015-11-11T12:47:53Z</time>
      </trkpt>
      <trkpt lat="44.53031" lon="1.74158">
        <ele>156.82</ele>
        <time>2015-11-11T12:48:07Z</time>
      </trkpt>
      <trkpt lat="44.53019" lon="1.74139">
        <ele>156.53</ele>
        <time>2015-11-11T12:48:23Z</time>
      </trkpt>
      <trkpt lat="44.53011" lon="1.74115">
        <ele>151.73</ele>
        <time>2015-11-11T12:48:39Z</time>
      </trkpt>
      <trkpt lat="44.53" lon="1.74094">
        <ele>151.03</ele>
        <time>2015-11-11T12:48:54Z</time>
      </trkpt>
      <trkpt lat="44.52992" lon="1.74069">
        <ele>150.46</ele>
        <time>2015-11-11T12:49:10Z</time>
      </trkpt>
      <trkpt lat="44.52981" lon="1.74047">
        <ele>150.62</ele>
        <time>2015-11-11T12:49:35Z</time>
      </trkpt>
      <trkpt lat="44.5297" lon="1.74026">
        <ele>149.49</ele>
        <time>2015-11-11T12:49:52Z</time>
      </trkpt>
      <trkpt lat="44.52962" lon="1.74003">
        <ele>148.09</ele>
        <time>2015-11-11T12:50:14Z</time>
      </trkpt>
      <trkpt lat="44.52955" lon="1.73979">
        <ele>146.24</ele>
        <time>2015-11-11T12:50:28Z</time>
      </trkpt>
      <trkpt lat="44.52944" lon="1.73957">
        <ele>144.43</ele>
        <time>2015-11-11T12:50:41Z</time>
      </trkpt>
      <trkpt lat="44.52936" lon="1.73934">
        <ele>145.49</ele>
        <time>2015-11-11T12:50:54Z</time>
      </trkpt>
      <trkpt lat="44.52926" lon="1.73911">
        <ele>145.56</ele>
        <time>2015-11-11T12:51:09Z</time>
      </trkpt>
      <trkpt lat="44.52918" lon="1.73887">
        <ele>143.2</ele>
        <time>2015-11-11T12:51:25Z</time>
      </trkpt>
      <trkpt lat="44.52906" lon="1.73864">
        <ele>143.95</ele>
        <time>2015-11-11T12:51:39Z</time>
      </trkpt>
      <trkpt lat="44.52897" lon="1.73843">
        <ele>144.34</ele>
        <time>2015-11-11T12:51:53Z</time>
      </trkpt>
      <trkpt lat="44.52889" lon="1.7382">
        <ele>140.15</ele>
        <time>2015-11-11T12:52:04Z</time>
      </trkpt>
      <trkpt lat="44.52882" lon="1.73795">
        <ele>140.84</ele>
        <time>2015-11-11T12:52:23Z</time>
      </trkpt>
      <trkpt lat="44.52891" lon="1.73772">
        <ele>134.67</ele>
        <time>2015-11-11T12:52:46Z</time>
      </trkpt>
      <trkpt lat="44.52908" lon="1.73765">
        <ele>135.43</ele>
        <time>2015-11-11T12:53:02Z</time>
      </trkpt>
      <trkpt lat="44.52922" lon="1.73748">
        <ele>152.78</ele>
        <time>2015-11-11T12:53:24Z</time>
      </trkpt>
      <trkpt lat="44.52938" lon="1.73734">
        <ele>158.55</ele>
        <time>2015-11-11T12:53:50Z</time>
      </trkpt>
      <trkpt lat="44.52955" lon="1.73721">
        <ele>161.61</ele>
        <time>2015-11-11T12:54:02Z</time>
      </trkpt>
      <trkpt lat="44.52973" lon="1.73716">
        <ele>154.71</ele>
        <time>2015-11-11T12:54:19Z</time>
      </trkpt>
      <trkpt lat="44.5299" lon="1.7371">
        <ele>158.91</ele>
        <time>2015-11-11T12:54:57Z</time>
      </trkpt>
      <trkpt lat="44.5301" lon="1.73705">
        <ele>163.76</ele>
        <time>2015-11-11T12:55:20Z</time>
      </trkpt>
      <trkpt lat="44.53028" lon="1.73705">
        <ele>173.22</ele>
        <time>2015-11-11T12:55:32Z</time>
      </trkpt>
      <trkpt lat="44.53044" lon="1.73691">
        <ele>180.22</ele>
        <time>2015-11-11T12:55:47Z</time>
      </trkpt>
      <trkpt lat="44.53063" lon="1.7369">
        <ele>177.44</ele>
        <time>2015-11-11T12:56:03Z</time>
      </trkpt>
      <trkpt lat="44.53082" lon="1.7369">
        <ele>169.24</ele>
        <time>2015-11-11T12:56:23Z</time>
      </trkpt>
      <trkpt lat="44.531" lon="1.73683">
        <ele>178</ele>
        <time>2015-11-11T12:56:44Z</time>
      </trkpt>
      <trkpt lat="44.53118" lon="1.7369">
        <ele>180.28</ele>
        <time>2015-11-11T12:57:14Z</time>
      </trkpt>
      <trkpt lat="44.53138" lon="1.73682">
        <ele>185.27</ele>
        <time>2015-11-11T12:57:26Z</time>
      </trkpt>
      <trkpt lat="44.53156" lon="1.73674">
        <ele>191.95</ele>
        <time>2015-11-11T12:57:49Z</time>
      </trkpt>
      <trkpt lat="44.53174" lon="1.73669">
        <ele>200.58</ele>
        <time>2015-11-11T12:58:11Z</time>
      </trkpt>
      <trkpt lat="44.53194" lon="1.73671">
        <ele>204.67</ele>
        <time>2015-11-11T12:58:30Z</time>
      </trkpt>
      <trkpt lat="44.53181" lon="1.73687">
        <ele>212.93</ele>
        <time>2015-11-11T12:59:18Z</time>
      </trkpt>
      <trkpt lat="44.53199" lon="1.73684">
        <ele>214.87</ele>
        <time>2015-11-11T12:59:40Z</time>
      </trkpt>
      <trkpt lat="44.53218" lon="1.73683">
        <ele>215.26</ele>
        <time>2015-11-11T13:00:01Z</time>
      </trkpt>
      <trkpt lat="44.53236" lon="1.73687">
        <ele>217.48</ele>
        <time>2015-11-11T13:00:25Z</time>
      </trkpt>
      <trkpt lat="44.53254" lon="1.73694">
        <ele>210.92</ele>
        <time>2015-11-11T13:00:42Z</time>
      </trkpt>
      <trkpt lat="44.53274" lon="1.73699">
        <ele>214.81</ele>
        <time>2015-11-11T13:00:56Z</time>
      </trkpt>
      <trkpt lat="44.53292" lon="1.73695">
        <ele>215.65</ele>
        <time>2015-11-11T13:01:16Z</time>
      </trkpt>
      <trkpt lat="44.53311" lon="1.73692">
        <ele>224.3</ele>
        <time>2015-11-11T13:01:49Z</time>
      </trkpt>
      <trkpt lat="44.5333" lon="1.73695">
        <ele>221.04</ele>
        <time>2015-11-11T13:02:02Z</time>
      </trkpt>
      <trkpt lat="44.53348" lon="1.73696">
        <ele>222.54</ele>
        <time>2015-11-11T13:02:17Z</time>
      </trkpt>
      <trkpt lat="44.53371" lon="1.73701">
        <ele>224.81</ele>
        <time>2015-11-11T13:02:35Z</time>
      </trkpt>
      <trkpt lat="44.53389" lon="1.73701">
        <ele>226.43</ele>
        <time>2015-11-11T13:04:50Z</time>
      </trkpt>
      <trkpt lat="44.53406" lon="1.73712">
        <ele>228.43</ele>
        <time>2015-11-11T13:05:05Z</time>
      </trkpt>
      <trkpt lat="44.53423" lon="1.73723">
        <ele>234.61</ele>
        <time>2015-11-11T13:05:28Z</time>
      </trkpt>
      <trkpt lat="44.53438" lon="1.7374">
        <ele>240.31</ele>
        <time>2015-11-11T13:05:45Z</time>
      </trkpt>
      <trkpt lat="44.53456" lon="1.73752">
        <ele>239.02</ele>
        <time>2015-11-11T13:05:58Z</time>
      </trkpt>
      <trkpt lat="44.53473" lon="1.73758">
        <ele>247.11</ele>
        <time>2015-11-11T13:06:16Z</time>
      </trkpt>
      <trkpt lat="44.5349" lon="1.73772">
        <ele>246.36</ele>
        <time>2015-11-11T13:06:30Z</time>
      </trkpt>
      <trkpt lat="44.53506" lon="1.73786">
        <ele>246.49</ele>
        <time>2015-11-11T13:06:49Z</time>
      </trkpt>
      <trkpt lat="44.53522" lon="1.73799">
        <ele>243.47</ele>
        <time>2015-11-11T13:07:00Z</time>
      </trkpt>
      <trkpt lat="44.53536" lon="1.73815">
        <ele>241.85</ele>
        <time>2015-11-11T13:07:14Z</time>
      </trkpt>
      <trkpt lat="44.53552" lon="1.73828">
        <ele>243.72</ele>
        <time>2015-11-11T13:07:27Z</time>
      </trkpt>
      <trkpt lat="44.53571" lon="1.7383">
        <ele>243.56</ele>
        <time>2015-11-11T13:07:44Z</time>
      </trkpt>
      <trkpt lat="44.53588" lon="1.7382">
        <ele>240.74</ele>
        <time>2015-11-11T13:08:01Z</time>
      </trkpt>
      <trkpt lat="44.53604" lon="1.73805">
        <ele>237.75</ele>
        <time>2015-11-11T13:08:17Z</time>
      </trkpt>
      <trkpt lat="44.53617" lon="1.73786">
        <ele>239.96</ele>
        <time>2015-11-11T13:08:47Z</time>
      </trkpt>
      <trkpt lat="44.53627" lon="1.73765">
        <ele>243.77</ele>
        <time>2015-11-11T13:09:00Z</time>
      </trkpt>
      <trkpt lat="44.53641" lon="1.73746">
        <ele>247.51</ele>
        <time>2015-11-11T13:09:16Z</time>
      </trkpt>
      <trkpt lat="44.53652" lon="1.73726">
        <ele>244.92</ele>
        <time>2015-11-11T13:09:34Z</time>
      </trkpt>
      <trkpt lat="44.5366" lon="1.73702">
        <ele>244.09</ele>
        <time>2015-11-11T13:09:45Z</time>
      </trkpt>
      <trkpt lat="44.53668" lon="1.73678">
        <ele>242.37</ele>
        <time>2015-11-11T13:10:00Z</time>
      </trkpt>
      <trkpt lat="44.53678" lon="1.73657">
        <ele>239.37</ele>
        <time>2015-11-11T13:10:13Z</time>
      </trkpt>
      <trkpt lat="44.53692" lon="1.73639">
        <ele>241.68</ele>
        <time>2015-11-11T13:10:28Z</time>
      </trkpt>
      <trkpt lat="44.53705" lon="1.7362">
        <ele>242.65</ele>
        <time>2015-11-11T13:10:44Z</time>
      </trkpt>
      <trkpt lat="44.53719" lon="1.73602">
        <ele>239.69</ele>
        <time>2015-11-11T13:11:01Z</time>
      </trkpt>
      <trkpt lat="44.53732" lon="1.73583">
        <ele>244.57</ele>
        <time>2015-11-11T13:11:13Z</time>
      </trkpt>
      <trkpt lat="44.53745" lon="1.73564">
        <ele>242.29</ele>
        <time>2015-11-11T13:11:33Z</time>
      </trkpt>
      <trkpt lat="44.53753" lon="1.7354">
        <ele>246.45</ele>
        <time>2015-11-11T13:11:44Z</time>
      </trkpt>
      <trkpt lat="44.53767" lon="1.73523">
        <ele>240.43</ele>
        <time>2015-11-11T13:11:58Z</time>
      </trkpt>
      <trkpt lat="44.5378" lon="1.73504">
        <ele>238.07</ele>
        <time>2015-11-11T13:12:30Z</time>
      </trkpt>
      <trkpt lat="44.53796" lon="1.73487">
        <ele>240.45</ele>
        <time>2015-11-11T13:12:44Z</time>
      </trkpt>
      <trkpt lat="44.53808" lon="1.73467">
        <ele>243.94</ele>
        <time>2015-11-11T13:13:00Z</time>
      </trkpt>
      <trkpt lat="44.53824" lon="1.73453">
        <ele>240.06</ele>
        <time>2015-11-11T13:13:13Z</time>
      </trkpt>
      <trkpt lat="44.5384" lon="1.73441">
        <ele>235.08</ele>
        <time>2015-11-11T13:13:27Z</time>
      </trkpt>
      <trkpt lat="44.53854" lon="1.73425">
        <ele>234</ele>
        <time>2015-11-11T13:13:42Z</time>
      </trkpt>
      <trkpt lat="44.53869" lon="1.7341">
        <ele>235.8</ele>
        <time>2015-11-11T13:13:53Z</time>
      </trkpt>
      <trkpt lat="44.53886" lon="1.73399">
        <ele>232.04</ele>
        <time>2015-11-11T13:14:06Z</time>
      </trkpt>
      <trkpt lat="44.53903" lon="1.73391">
        <ele>232.35</ele>
        <time>2015-11-11T13:14:22Z</time>
      </trkpt>
      <trkpt lat="44.53921" lon="1.73381">
        <ele>233.14</ele>
        <time>2015-11-11T13:14:35Z</time>
      </trkpt>
      <trkpt lat="44.53939" lon="1.73374">
        <ele>230.68</ele>
        <time>2015-11-11T13:14:51Z</time>
      </trkpt>
      <trkpt lat="44.53957" lon="1.73374">
        <ele>219.14</ele>
        <time>2015-11-11T13:15:05Z</time>
      </trkpt>
      <trkpt lat="44.53976" lon="1.73371">
        <ele>224.58</ele>
        <time>2015-11-11T13:15:31Z</time>
      </trkpt>
      <trkpt lat="44.53996" lon="1.73368">
        <ele>228.21</ele>
        <time>2015-11-11T13:15:45Z</time>
      </trkpt>
      <trkpt lat="44.54013" lon="1.73373">
        <ele>234.56</ele>
        <time>2015-11-11T13:16:08Z</time>
      </trkpt>
      <trkpt lat="44.54007" lon="1.73398">
        <ele>235.77</ele>
        <time>2015-11-11T13:16:30Z</time>
      </trkpt>
      <trkpt lat="44.54006" lon="1.73425">
        <ele>238.25</ele>
        <time>2015-11-11T13:18:06Z</time>
      </trkpt>
      <trkpt lat="44.54001" lon="1.73449">
        <ele>242.72</ele>
        <time>2015-11-11T13:18:32Z</time>
      </trkpt>
      <trkpt lat="44.54003" lon="1.73476">
        <ele>239.81</ele>
        <time>2015-11-11T13:18:45Z</time>
      </trkpt>
      <trkpt lat="44.53997" lon="1.735">
        <ele>241.16</ele>
        <time>2015-11-11T13:19:07Z</time>
      </trkpt>
      <trkpt lat="44.53995" lon="1.73526">
        <ele>242.23</ele>
        <time>2015-11-11T13:19:32Z</time>
      </trkpt>
      <trkpt lat="44.54004" lon="1.73548">
        <ele>245.77</ele>
        <time>2015-11-11T13:19:53Z</time>
      </trkpt>
      <trkpt lat="44.54016" lon="1.73569">
        <ele>244.5</ele>
        <time>2015-11-11T13:20:10Z</time>
      </trkpt>
      <trkpt lat="44.54027" lon="1.7359">
        <ele>245.87</ele>
        <time>2015-11-11T13:20:26Z</time>
      </trkpt>
      <trkpt lat="44.54036" lon="1.73615">
        <ele>248.9</ele>
        <time>2015-11-11T13:20:44Z</time>
      </trkpt>
      <trkpt lat="44.54037" lon="1.7364">
        <ele>247.35</ele>
        <time>2015-11-11T13:21:00Z</time>
      </trkpt>
      <trkpt lat="44.54042" lon="1.73665">
        <ele>246.54</ele>
        <time>2015-11-11T13:21:19Z</time>
      </trkpt>
      <trkpt lat="44.54042" lon="1.7369">
        <ele>257.64</ele>
        <time>2015-11-11T13:21:49Z</time>
      </trkpt>
      <trkpt lat="44.54043" lon="1.73715">
        <ele>255.67</ele>
        <time>2015-11-11T13:22:08Z</time>
      </trkpt>
      <trkpt lat="44.54042" lon="1.73744">
        <ele>265.68</ele>
        <time>2015-11-11T13:22:24Z</time>
      </trkpt>
      <trkpt lat="44.54037" lon="1.73769">
        <ele>268.21</ele>
        <time>2015-11-11T13:22:34Z</time>
      </trkpt>
      <trkpt lat="44.54038" lon="1.73794">
        <ele>275.13</ele>
        <time>2015-11-11T13:22:48Z</time>
      </trkpt>
      <trkpt lat="44.54046" lon="1.73817">
        <ele>272.48</ele>
        <time>2015-11-11T13:23:11Z</time>
      </trkpt>
      <trkpt lat="44.54036" lon="1.73839">
        <ele>266.37</ele>
        <time>2015-11-11T13:23:44Z</time>
      </trkpt>
      <trkpt lat="44.54049" lon="1.73821">
        <ele>257.19</ele>
        <time>2015-11-11T13:24:29Z</time>
      </trkpt>
      <trkpt lat="44.54067" lon="1.7381">
        <ele>259.48</ele>
        <time>2015-11-11T13:24:43Z</time>
      </trkpt>
      <trkpt lat="44.54083" lon="1.73798">
        <ele>258.39</ele>
        <time>2015-11-11T13:24:58Z</time>
      </trkpt>
      <trkpt lat="44.541" lon="1.73787">
        <ele>257.93</ele>
        <time>2015-11-11T13:25:14Z</time>
      </trkpt>
      <trkpt lat="44.54118" lon="1.73779">
        <ele>256.22</ele>
        <time>2015-11-11T13:25:26Z</time>
      </trkpt>
      <trkpt lat="44.54135" lon="1.7377">
        <ele>253.98</ele>
        <time>2015-11-11T13:25:39Z</time>
      </trkpt>
      <trkpt lat="44.54151" lon="1.73756">
        <ele>253.45</ele>
        <time>2015-11-11T13:25:57Z</time>
      </trkpt>
      <trkpt lat="44.54168" lon="1.73745">
        <ele>255.46</ele>
        <time>2015-11-11T13:26:11Z</time>
      </trkpt>
      <trkpt lat="44.54182" lon="1.73728">
        <ele>258.74</ele>
        <time>2015-11-11T13:26:27Z</time>
      </trkpt>
      <trkpt lat="44.54199" lon="1.73718">
        <ele>257.58</ele>
        <time>2015-11-11T13:26:42Z</time>
      </trkpt>
      <trkpt lat="44.54217" lon="1.73709">
        <ele>260.84</ele>
        <time>2015-11-11T13:26:56Z</time>
      </trkpt>
      <trkpt lat="44.54235" lon="1.73708">
        <ele>262.79</ele>
        <time>2015-11-11T13:27:11Z</time>
      </trkpt>
      <trkpt lat="44.54253" lon="1.73708">
        <ele>264.75</ele>
        <time>2015-11-11T13:27:26Z</time>
      </trkpt>
      <trkpt lat="44.54271" lon="1.73703">
        <ele>268.05</ele>
        <time>2015-11-11T13:27:40Z</time>
      </trkpt>
      <trkpt lat="44.54289" lon="1.73696">
        <ele>273.44</ele>
        <time>2015-11-11T13:27:55Z</time>
      </trkpt>
      <trkpt lat="44.54307" lon="1.7369">
        <ele>265.63</ele>
        <time>2015-11-11T13:28:07Z</time>
      </trkpt>
      <trkpt lat="44.54324" lon="1.73681">
        <ele>258.42</ele>
        <time>2015-11-11T13:28:24Z</time>
      </trkpt>
      <trkpt lat="44.54337" lon="1.73663">
        <ele>257.59</ele>
        <time>2015-11-11T13:28:38Z</time>
      </trkpt>
      <trkpt lat="44.54353" lon="1.73649">
        <ele>248.08</ele>
        <time>2015-11-11T13:28:54Z</time>
      </trkpt>
      <trkpt lat="44.54371" lon="1.73645">
        <ele>253.62</ele>
        <time>2015-11-11T13:29:22Z</time>
      </trkpt>
      <trkpt lat="44.54377" lon="1.73669">
        <ele>253.15</ele>
        <time>2015-11-11T13:29:37Z</time>
      </trkpt>
      <trkpt lat="44.54375" lon="1.73696">
        <ele>263.87</ele>
        <time>2015-11-11T13:29:57Z</time>
      </trkpt>
      <trkpt lat="44.54374" lon="1.73721">
        <ele>268.31</ele>
        <time>2015-11-11T13:30:15Z</time>
      </trkpt>
      <trkpt lat="44.54371" lon="1.73749">
        <ele>271.72</ele>
        <time>2015-11-11T13:30:32Z</time>
      </trkpt>
      <trkpt lat="44.54373" lon="1.73775">
        <ele>274.99</ele>
        <time>2015-11-11T13:30:50Z</time>
      </trkpt>
      <trkpt lat="44.54378" lon="1.738">
        <ele>277.2</ele>
        <time>2015-11-11T13:31:04Z</time>
      </trkpt>
      <trkpt lat="44.54389" lon="1.73819">
        <ele>281.72</ele>
        <time>2015-11-11T13:31:18Z</time>
      </trkpt>
      <trkpt lat="44.54408" lon="1.7382">
        <ele>277.32</ele>
        <time>2015-11-11T13:31:33Z</time>
      </trkpt>
      <trkpt lat="44.54427" lon="1.73817">
        <ele>279.76</ele>
        <time>2015-11-11T13:31:50Z</time>
      </trkpt>
      <trkpt lat="44.54445" lon="1.73823">
        <ele>277.88</ele>
        <time>2015-11-11T13:32:08Z</time>
      </trkpt>
      <trkpt lat="44.54454" lon="1.73847">
        <ele>273.81</ele>
        <time>2015-11-11T13:32:23Z</time>
      </trkpt>
      <trkpt lat="44.54465" lon="1.7387">
        <ele>276.55</ele>
        <time>2015-11-11T13:32:38Z</time>
      </trkpt>
      <trkpt lat="44.54483" lon="1.73878">
        <ele>277.8</ele>
        <time>2015-11-11T13:32:52Z</time>
      </trkpt>
      <trkpt lat="44.54501" lon="1.73879">
        <ele>279.13</ele>
        <time>2015-11-11T13:33:08Z</time>
      </trkpt>
      <trkpt lat="44.5452" lon="1.7388">
        <ele>281.07</ele>
        <time>2015-11-11T13:33:25Z</time>
      </trkpt>
      <trkpt lat="44.54537" lon="1.73887">
        <ele>275.8</ele>
        <time>2015-11-11T13:33:39Z</time>
      </trkpt>
      <trkpt lat="44.54555" lon="1.73891">
        <ele>281.9</ele>
        <time>2015-11-11T13:33:53Z</time>
      </trkpt>
      <trkpt lat="44.54575" lon="1.73896">
        <ele>284.96</ele>
        <time>2015-11-11T13:34:08Z</time>
      </trkpt>
      <trkpt lat="44.54591" lon="1.73908">
        <ele>281.07</ele>
        <time>2015-11-11T13:34:23Z</time>
      </trkpt>
      <trkpt lat="44.54606" lon="1.73926">
        <ele>282.77</ele>
        <time>2015-11-11T13:34:47Z</time>
      </trkpt>
      <trkpt lat="44.5462" lon="1.73943">
        <ele>279.89</ele>
        <time>2015-11-11T13:34:57Z</time>
      </trkpt>
      <trkpt lat="44.54636" lon="1.73956">
        <ele>278.59</ele>
        <time>2015-11-11T13:35:10Z</time>
      </trkpt>
      <trkpt lat="44.54654" lon="1.73964">
        <ele>284.82</ele>
        <time>2015-11-11T13:35:25Z</time>
      </trkpt>
      <trkpt lat="44.54666" lon="1.73983">
        <ele>286.39</ele>
        <time>2015-11-11T13:35:39Z</time>
      </trkpt>
      <trkpt lat="44.5468" lon="1.74001">
        <ele>290.26</ele>
        <time>2015-11-11T13:35:55Z</time>
      </trkpt>
      <trkpt lat="44.54695" lon="1.74018">
        <ele>289.92</ele>
        <time>2015-11-11T13:36:09Z</time>
      </trkpt>
      <trkpt lat="44.54709" lon="1.74036">
        <ele>286.76</ele>
        <time>2015-11-11T13:36:24Z</time>
      </trkpt>
      <trkpt lat="44.54719" lon="1.74057">
        <ele>283.42</ele>
        <time>2015-11-11T13:36:47Z</time>
      </trkpt>
      <trkpt lat="44.5473" lon="1.7408">
        <ele>283.11</ele>
        <time>2015-11-11T13:37:01Z</time>
      </trkpt>
      <trkpt lat="44.54735" lon="1.74104">
        <ele>284.48</ele>
        <time>2015-11-11T13:37:14Z</time>
      </trkpt>
      <trkpt lat="44.54729" lon="1.74128">
        <ele>279.64</ele>
        <time>2015-11-11T13:37:30Z</time>
      </trkpt>
      <trkpt lat="44.54721" lon="1.74152">
        <ele>273.22</ele>
        <time>2015-11-11T13:37:46Z</time>
      </trkpt>
      <trkpt lat="44.54705" lon="1.74165">
        <ele>276.92</ele>
        <time>2015-11-11T13:38:01Z</time>
      </trkpt>
      <trkpt lat="44.54707" lon="1.7419">
        <ele>282.14</ele>
        <time>2015-11-11T13:38:23Z</time>
      </trkpt>
      <trkpt lat="44.54712" lon="1.74215">
        <ele>276.85</ele>
        <time>2015-11-11T13:38:48Z</time>
      </trkpt>
      <trkpt lat="44.54721" lon="1.74239">
        <ele>268.42</ele>
        <time>2015-11-11T13:39:07Z</time>
      </trkpt>
      <trkpt lat="44.54732" lon="1.74262">
        <ele>264.02</ele>
        <time>2015-11-11T13:39:23Z</time>
      </trkpt>
      <trkpt lat="44.54739" lon="1.74285">
        <ele>260.39</ele>
        <time>2015-11-11T13:39:48Z</time>
      </trkpt>
      <trkpt lat="44.5475" lon="1.74308">
        <ele>261.04</ele>
        <time>2015-11-11T13:40:06Z</time>
      </trkpt>
      <trkpt lat="44.54756" lon="1.74332">
        <ele>262.94</ele>
        <time>2015-11-11T13:40:24Z</time>
      </trkpt>
      <trkpt lat="44.54767" lon="1.74352">
        <ele>261.78</ele>
        <time>2015-11-11T13:40:43Z</time>
      </trkpt>
      <trkpt lat="44.54787" lon="1.7436">
        <ele>261.95</ele>
        <time>2015-11-11T13:41:00Z</time>
      </trkpt>
      <trkpt lat="44.54805" lon="1.74358">
        <ele>255.52</ele>
        <time>2015-11-11T13:41:27Z</time>
      </trkpt>
      <trkpt lat="44.54815" lon="1.7438">
        <ele>254.21</ele>
        <time>2015-11-11T13:41:46Z</time>
      </trkpt>
      <trkpt lat="44.5481" lon="1.74404">
        <ele>250.57</ele>
        <time>2015-11-11T13:42:03Z</time>
      </trkpt>
      <trkpt lat="44.54808" lon="1.74431">
        <ele>250.36</ele>
        <time>2015-11-11T13:42:24Z</time>
      </trkpt>
      <trkpt lat="44.54818" lon="1.74452">
        <ele>247.45</ele>
        <time>2015-11-11T13:42:47Z</time>
      </trkpt>
      <trkpt lat="44.54835" lon="1.74464">
        <ele>244.59</ele>
        <time>2015-11-11T13:43:03Z</time>
      </trkpt>
      <trkpt lat="44.54855" lon="1.74475">
        <ele>243.9</ele>
        <time>2015-11-11T13:43:20Z</time>
      </trkpt>
      <trkpt lat="44.54868" lon="1.74494">
        <ele>241.19</ele>
        <time>2015-11-11T13:43:35Z</time>
      </trkpt>
      <trkpt lat="44.54881" lon="1.74512">
        <ele>236.24</ele>
        <time>2015-11-11T13:43:51Z</time>
      </trkpt>
      <trkpt lat="44.54896" lon="1.74527">
        <ele>226.99</ele>
        <time>2015-11-11T13:44:42Z</time>
      </trkpt>
      <trkpt lat="44.54904" lon="1.7455">
        <ele>227.13</ele>
        <time>2015-11-11T13:45:23Z</time>
      </trkpt>
      <trkpt lat="44.54923" lon="1.7455">
        <ele>219.62</ele>
        <time>2015-11-11T13:45:37Z</time>
      </trkpt>
      <trkpt lat="44.5494" lon="1.7454">
        <ele>220.19</ele>
        <time>2015-11-11T13:46:17Z</time>
      </trkpt>
      <trkpt lat="44.54955" lon="1.74525">
        <ele>228.47</ele>
        <time>2015-11-11T13:46:31Z</time>
      </trkpt>
      <trkpt lat="44.54969" lon="1.7451">
        <ele>223.05</ele>
        <time>2015-11-11T13:46:46Z</time>
      </trkpt>
      <trkpt lat="44.54985" lon="1.74494">
        <ele>218.39</ele>
        <time>2015-11-11T13:46:59Z</time>
      </trkpt>
      <trkpt lat="44.54983" lon="1.74521">
        <ele>214.13</ele>
        <time>2015-11-11T13:47:24Z</time>
      </trkpt>
      <trkpt lat="44.54981" lon="1.74546">
        <ele>211.48</ele>
        <time>2015-11-11T13:47:46Z</time>
      </trkpt>
      <trkpt lat="44.54978" lon="1.74573">
        <ele>213.61</ele>
        <time>2015-11-11T13:48:06Z</time>
      </trkpt>
      <trkpt lat="44.54978" lon="1.74601">
        <ele>204.86</ele>
        <time>2015-11-11T13:48:25Z</time>
      </trkpt>
      <trkpt lat="44.5498" lon="1.74627">
        <ele>202.97</ele>
        <time>2015-11-11T13:48:35Z</time>
      </trkpt>
      <trkpt lat="44.5497" lon="1.74648">
        <ele>207.93</ele>
        <time>2015-11-11T13:48:57Z</time>
      </trkpt>
      <trkpt lat="44.54958" lon="1.74667">
        <ele>207.11</ele>
        <time>2015-11-11T13:49:12Z</time>
      </trkpt>
      <trkpt lat="44.54947" lon="1.74688">
        <ele>189.18</ele>
        <time>2015-11-11T13:49:29Z</time>
      </trkpt>
      <trkpt lat="44.54953" lon="1.74713">
        <ele>177.79</ele>
        <time>2015-11-11T13:49:58Z</time>
      </trkpt>
      <trkpt lat="44.54972" lon="1.74712">
        <ele>176.79</ele>
        <time>2015-11-11T13:50:51Z</time>
      </trkpt>
      <trkpt lat="44.54993" lon="1.74708">
        <ele>165.35</ele>
        <time>2015-11-11T13:51:04Z</time>
      </trkpt>
      <trkpt lat="44.5498" lon="1.74726">
        <ele>164.37</ele>
        <time>2015-11-11T13:51:24Z</time>
      </trkpt>
      <trkpt lat="44.54968" lon="1.74746">
        <ele>159.99</ele>
        <time>2015-11-11T13:51:43Z</time>
      </trkpt>
      <trkpt lat="44.54968" lon="1.74773">
        <ele>159.93</ele>
        <time>2015-11-11T13:52:07Z</time>
      </trkpt>
      <trkpt lat="44.54973" lon="1.74797">
        <ele>159.59</ele>
        <time>2015-11-11T13:52:21Z</time>
      </trkpt>
      <trkpt lat="44.54992" lon="1.74803">
        <ele>162.02</ele>
        <time>2015-11-11T13:52:37Z</time>
      </trkpt>
      <trkpt lat="44.5501" lon="1.74805">
        <ele>165.84</ele>
        <time>2015-11-11T13:52:55Z</time>
      </trkpt>
      <trkpt lat="44.55031" lon="1.74804">
        <ele>165.38</ele>
        <time>2015-11-11T13:53:08Z</time>
      </trkpt>
      <trkpt lat="44.55051" lon="1.74798">
        <ele>161.76</ele>
        <time>2015-11-11T13:53:23Z</time>
      </trkpt>
      <trkpt lat="44.55066" lon="1.74785">
        <ele>159.71</ele>
        <time>2015-11-11T13:53:39Z</time>
      </trkpt>
      <trkpt lat="44.55084" lon="1.7479">
        <ele>168.95</ele>
        <time>2015-11-11T13:54:13Z</time>
      </trkpt>
      <trkpt lat="44.55103" lon="1.74794">
        <ele>180.95</ele>
        <time>2015-11-11T13:54:37Z</time>
      </trkpt>
      <trkpt lat="44.55122" lon="1.74798">
        <ele>179.76</ele>
        <time>2015-11-11T13:55:14Z</time>
      </trkpt>
      <trkpt lat="44.55133" lon="1.74819">
        <ele>182.16</ele>
        <time>2015-11-11T13:55:37Z</time>
      </trkpt>
      <trkpt lat="44.55126" lon="1.74843">
        <ele>187.58</ele>
        <time>2015-11-11T13:57:44Z</time>
      </trkpt>
      <trkpt lat="44.55108" lon="1.74857">
        <ele>201.48</ele>
        <time>2015-11-11T13:58:24Z</time>
      </trkpt>
      <trkpt lat="44.55091" lon="1.74866">
        <ele>202.96</ele>
        <time>2015-11-11T13:59:28Z</time>
      </trkpt>
      <trkpt lat="44.55103" lon="1.74887">
        <ele>212.78</ele>
        <time>2015-11-11T14:00:08Z</time>
      </trkpt>
      <trkpt lat="44.55113" lon="1.74908">
        <ele>215.33</ele>
        <time>2015-11-11T14:01:25Z</time>
      </trkpt>
      <trkpt lat="44.551" lon="1.74927">
        <ele>224.32</ele>
        <time>2015-11-11T14:02:13Z</time>
      </trkpt>
      <trkpt lat="44.55083" lon="1.74935">
        <ele>223.24</ele>
        <time>2015-11-11T14:02:29Z</time>
      </trkpt>
      <trkpt lat="44.55072" lon="1.74956">
        <ele>234.98</ele>
        <time>2015-11-11T14:02:57Z</time>
      </trkpt>
      <trkpt lat="44.55073" lon="1.74981">
        <ele>239.12</ele>
        <time>2015-11-11T14:03:15Z</time>
      </trkpt>
      <trkpt lat="44.5507" lon="1.75007">
        <ele>242.92</ele>
        <time>2015-11-11T14:04:29Z</time>
      </trkpt>
      <trkpt lat="44.55069" lon="1.75032">
        <ele>242.72</ele>
        <time>2015-11-11T14:04:44Z</time>
      </trkpt>
      <trkpt lat="44.55077" lon="1.75054">
        <ele>246.59</ele>
        <time>2015-11-11T14:05:02Z</time>
      </trkpt>
      <trkpt lat="44.55072" lon="1.75079">
        <ele>252.42</ele>
        <time>2015-11-11T14:05:20Z</time>
      </trkpt>
      <trkpt lat="44.5506" lon="1.75098">
        <ele>253.02</ele>
        <time>2015-11-11T14:06:17Z</time>
      </trkpt>
      <trkpt lat="44.55042" lon="1.75092">
        <ele>254</ele>
        <time>2015-11-11T14:06:34Z</time>
      </trkpt>
      <trkpt lat="44.55024" lon="1.75086">
        <ele>248.66</ele>
        <time>2015-11-11T14:06:48Z</time>
      </trkpt>
      <trkpt lat="44.55006" lon="1.75081">
        <ele>249.03</ele>
        <time>2015-11-11T14:07:02Z</time>
      </trkpt>
      <trkpt lat="44.54988" lon="1.75081">
        <ele>247.65</ele>
        <time>2015-11-11T14:07:15Z</time>
      </trkpt>
      <trkpt lat="44.5497" lon="1.75088">
        <ele>245.08</ele>
        <time>2015-11-11T14:08:00Z</time>
      </trkpt>
      <trkpt lat="44.5495" lon="1.75092">
        <ele>241.84</ele>
        <time>2015-11-11T14:08:14Z</time>
      </trkpt>
      <trkpt lat="44.54936" lon="1.75107">
        <ele>238.87</ele>
        <time>2015-11-11T14:08:37Z</time>
      </trkpt>
      <trkpt lat="44.54922" lon="1.75125">
        <ele>239.52</ele>
        <time>2015-11-11T14:08:52Z</time>
      </trkpt>
      <trkpt lat="44.54909" lon="1.75143">
        <ele>238.95</ele>
        <time>2015-11-11T14:09:12Z</time>
      </trkpt>
      <trkpt lat="44.54893" lon="1.75158">
        <ele>242.46</ele>
        <time>2015-11-11T14:09:26Z</time>
      </trkpt>
      <trkpt lat="44.54879" lon="1.75175">
        <ele>238.02</ele>
        <time>2015-11-11T14:09:41Z</time>
      </trkpt>
      <trkpt lat="44.54867" lon="1.75196">
        <ele>232.72</ele>
        <time>2015-11-11T14:09:57Z</time>
      </trkpt>
      <trkpt lat="44.54852" lon="1.75212">
        <ele>229</ele>
        <time>2015-11-11T14:10:13Z</time>
      </trkpt>
      <trkpt lat="44.54834" lon="1.75212">
        <ele>234.47</ele>
        <time>2015-11-11T14:10:30Z</time>
      </trkpt>
      <trkpt lat="44.54816" lon="1.75215">
        <ele>237.25</ele>
        <time>2015-11-11T14:10:45Z</time>
      </trkpt>
      <trkpt lat="44.54797" lon="1.75217">
        <ele>237.96</ele>
        <time>2015-11-11T14:11:06Z</time>
      </trkpt>
      <trkpt lat="44.5478" lon="1.75205">
        <ele>240.37</ele>
        <time>2015-11-11T14:11:22Z</time>
      </trkpt>
      <trkpt lat="44.54763" lon="1.75193">
        <ele>237.95</ele>
        <time>2015-11-11T14:11:37Z</time>
      </trkpt>
      <trkpt lat="44.54743" lon="1.75185">
        <ele>238.42</ele>
        <time>2015-11-11T14:11:53Z</time>
      </trkpt>
      <trkpt lat="44.54729" lon="1.75166">
        <ele>227.84</ele>
        <time>2015-11-11T14:12:10Z</time>
      </trkpt>
      <trkpt lat="44.54713" lon="1.75152">
        <ele>234.03</ele>
        <time>2015-11-11T14:12:28Z</time>
      </trkpt>
      <trkpt lat="44.54696" lon="1.75143">
        <ele>238.42</ele>
        <time>2015-11-11T14:12:38Z</time>
      </trkpt>
      <trkpt lat="44.54678" lon="1.75135">
        <ele>235.77</ele>
        <time>2015-11-11T14:12:51Z</time>
      </trkpt>
      <trkpt lat="44.5466" lon="1.75134">
        <ele>233.21</ele>
        <time>2015-11-11T14:13:07Z</time>
      </trkpt>
      <trkpt lat="44.54643" lon="1.75125">
        <ele>234.83</ele>
        <time>2015-11-11T14:13:20Z</time>
      </trkpt>
      <trkpt lat="44.54625" lon="1.75124">
        <ele>235.17</ele>
        <time>2015-11-11T14:13:31Z</time>
      </trkpt>
      <trkpt lat="44.54606" lon="1.75129">
        <ele>238.45</ele>
        <time>2015-11-11T14:14:46Z</time>
      </trkpt>
      <trkpt lat="44.54588" lon="1.75128">
        <ele>243.81</ele>
        <time>2015-11-11T14:15:00Z</time>
      </trkpt>
      <trkpt lat="44.54569" lon="1.75138">
        <ele>245.41</ele>
        <time>2015-11-11T14:15:24Z</time>
      </trkpt>
      <trkpt lat="44.54551" lon="1.75145">
        <ele>251.01</ele>
        <time>2015-11-11T14:15:36Z</time>
      </trkpt>
      <trkpt lat="44.54534" lon="1.75154">
        <ele>254.38</ele>
        <time>2015-11-11T14:15:48Z</time>
      </trkpt>
      <trkpt lat="44.54518" lon="1.75167">
        <ele>247.98</ele>
        <time>2015-11-11T14:16:02Z</time>
      </trkpt>
      <trkpt lat="44.54501" lon="1.75181">
        <ele>245.37</ele>
        <time>2015-11-11T14:16:18Z</time>
      </trkpt>
      <trkpt lat="44.54482" lon="1.75188">
        <ele>253.13</ele>
        <time>2015-11-11T14:16:40Z</time>
      </trkpt>
      <trkpt lat="44.54466" lon="1.752">
        <ele>255.42</ele>
        <time>2015-11-11T14:16:56Z</time>
      </trkpt>
      <trkpt lat="44.54454" lon="1.75219">
        <ele>256.1</ele>
        <time>2015-11-11T14:17:15Z</time>
      </trkpt>
      <trkpt lat="44.54438" lon="1.75234">
        <ele>256.05</ele>
        <time>2015-11-11T14:17:29Z</time>
      </trkpt>
      <trkpt lat="44.54419" lon="1.7524">
        <ele>251.35</ele>
        <time>2015-11-11T14:17:44Z</time>
      </trkpt>
      <trkpt lat="44.54403" lon="1.75254">
        <ele>254.01</ele>
        <time>2015-11-11T14:18:01Z</time>
      </trkpt>
      <trkpt lat="44.54386" lon="1.75266">
        <ele>258.5</ele>
        <time>2015-11-11T14:18:15Z</time>
      </trkpt>
      <trkpt lat="44.54367" lon="1.75276">
        <ele>266.4</ele>
        <time>2015-11-11T14:18:33Z</time>
      </trkpt>
      <trkpt lat="44.5435" lon="1.75287">
        <ele>261.11</ele>
        <time>2015-11-11T14:18:47Z</time>
      </trkpt>
      <trkpt lat="44.54331" lon="1.75291">
        <ele>261.63</ele>
        <time>2015-11-11T14:19:00Z</time>
      </trkpt>
      <trkpt lat="44.54312" lon="1.75289">
        <ele>258.27</ele>
        <time>2015-11-11T14:19:19Z</time>
      </trkpt>
      <trkpt lat="44.54297" lon="1.75274">
        <ele>258.53</ele>
        <time>2015-11-11T14:19:33Z</time>
      </trkpt>
      <trkpt lat="44.5428" lon="1.75263">
        <ele>259.7</ele>
        <time>2015-11-11T14:19:46Z</time>
      </trkpt>
      <trkpt lat="44.54265" lon="1.75249">
        <ele>255.89</ele>
        <time>2015-11-11T14:20:12Z</time>
      </trkpt>
      <trkpt lat="44.54248" lon="1.75239">
        <ele>261.72</ele>
        <time>2015-11-11T14:20:24Z</time>
      </trkpt>
      <trkpt lat="44.54232" lon="1.75225">
        <ele>260.89</ele>
        <time>2015-11-11T14:20:38Z</time>
      </trkpt>
      <trkpt lat="44.54216" lon="1.7521">
        <ele>261.72</ele>
        <time>2015-11-11T14:20:53Z</time>
      </trkpt>
      <trkpt lat="44.54204" lon="1.75189">
        <ele>265.17</ele>
        <time>2015-11-11T14:21:05Z</time>
      </trkpt>
      <trkpt lat="44.54187" lon="1.75177">
        <ele>262.92</ele>
        <time>2015-11-11T14:21:20Z</time>
      </trkpt>
      <trkpt lat="44.54171" lon="1.75166">
        <ele>261.55</ele>
        <time>2015-11-11T14:21:31Z</time>
      </trkpt>
      <trkpt lat="44.54155" lon="1.75153">
        <ele>260.93</ele>
        <time>2015-11-11T14:21:47Z</time>
      </trkpt>
      <trkpt lat="44.54139" lon="1.7514">
        <ele>260.4</ele>
        <time>2015-11-11T14:21:59Z</time>
      </trkpt>
      <trkpt lat="44.54123" lon="1.75127">
        <ele>260.66</ele>
        <time>2015-11-11T14:22:14Z</time>
      </trkpt>
      <trkpt lat="44.54105" lon="1.75129">
        <ele>262.11</ele>
        <time>2015-11-11T14:22:32Z</time>
      </trkpt>
      <trkpt lat="44.54087" lon="1.7513">
        <ele>259.55</ele>
        <time>2015-11-11T14:22:51Z</time>
      </trkpt>
      <trkpt lat="44.54067" lon="1.75132">
        <ele>256.99</ele>
        <time>2015-11-11T14:23:08Z</time>
      </trkpt>
      <trkpt lat="44.54048" lon="1.75131">
        <ele>256.72</ele>
        <time>2015-11-11T14:23:27Z</time>
      </trkpt>
      <trkpt lat="44.54028" lon="1.75135">
        <ele>255.33</ele>
        <time>2015-11-11T14:23:41Z</time>
      </trkpt>
      <trkpt lat="44.5401" lon="1.75139">
        <ele>248.15</ele>
        <time>2015-11-11T14:23:59Z</time>
      </trkpt>
      <trkpt lat="44.53992" lon="1.75131">
        <ele>244.13</ele>
        <time>2015-11-11T14:25:42Z</time>
      </trkpt>
      <trkpt lat="44.53977" lon="1.75117">
        <ele>240.08</ele>
        <time>2015-11-11T14:25:57Z</time>
      </trkpt>
      <trkpt lat="44.53962" lon="1.75102">
        <ele>236.01</ele>
        <time>2015-11-11T14:26:13Z</time>
      </trkpt>
      <trkpt lat="44.53946" lon="1.75088">
        <ele>233.28</ele>
        <time>2015-11-11T14:26:27Z</time>
      </trkpt>
      <trkpt lat="44.53931" lon="1.75073">
        <ele>231.55</ele>
        <time>2015-11-11T14:26:44Z</time>
      </trkpt>
      <trkpt lat="44.53914" lon="1.75061">
        <ele>229.53</ele>
        <time>2015-11-11T14:27:30Z</time>
      </trkpt>
      <trkpt lat="44.53896" lon="1.75055">
        <ele>225.6</ele>
        <time>2015-11-11T14:27:48Z</time>
      </trkpt>
      <trkpt lat="44.53883" lon="1.75075">
        <ele>224.06</ele>
        <time>2015-11-11T14:28:05Z</time>
      </trkpt>
      <trkpt lat="44.53888" lon="1.751">
        <ele>219.76</ele>
        <time>2015-11-11T14:28:37Z</time>
      </trkpt>
      <trkpt lat="44.53873" lon="1.75084">
        <ele>220.97</ele>
        <time>2015-11-11T14:29:47Z</time>
      </trkpt>
      <trkpt lat="44.53854" lon="1.75082">
        <ele>217.89</ele>
        <time>2015-11-11T14:30:02Z</time>
      </trkpt>
      <trkpt lat="44.53835" lon="1.7508">
        <ele>210.56</ele>
        <time>2015-11-11T14:30:28Z</time>
      </trkpt>
      <trkpt lat="44.53816" lon="1.75082">
        <ele>205.53</ele>
        <time>2015-11-11T14:30:45Z</time>
      </trkpt>
      <trkpt lat="44.53799" lon="1.75088">
        <ele>205.92</ele>
        <time>2015-11-11T14:30:58Z</time>
      </trkpt>
      <trkpt lat="44.5378" lon="1.75091">
        <ele>207.92</ele>
        <time>2015-11-11T14:31:16Z</time>
      </trkpt>
      <trkpt lat="44.53761" lon="1.75094">
        <ele>206.35</ele>
        <time>2015-11-11T14:31:31Z</time>
      </trkpt>
      <trkpt lat="44.53771" lon="1.75117">
        <ele>203.48</ele>
        <time>2015-11-11T14:32:23Z</time>
      </trkpt>
      <trkpt lat="44.53787" lon="1.75132">
        <ele>195.05</ele>
        <time>2015-11-11T14:32:39Z</time>
      </trkpt>
      <trkpt lat="44.53804" lon="1.75144">
        <ele>188.16</ele>
        <time>2015-11-11T14:32:56Z</time>
      </trkpt>
      <trkpt lat="44.53819" lon="1.75161">
        <ele>193.69</ele>
        <time>2015-11-11T14:33:10Z</time>
      </trkpt>
      <trkpt lat="44.53833" lon="1.75177">
        <ele>195.87</ele>
        <time>2015-11-11T14:33:26Z</time>
      </trkpt>
      <trkpt lat="44.53847" lon="1.75197">
        <ele>202.41</ele>
        <time>2015-11-11T14:33:50Z</time>
      </trkpt>
      <trkpt lat="44.53859" lon="1.75218">
        <ele>202.97</ele>
        <time>2015-11-11T14:34:01Z</time>
      </trkpt>
      <trkpt lat="44.53868" lon="1.7524">
        <ele>206.03</ele>
        <time>2015-11-11T14:34:16Z</time>
      </trkpt>
      <trkpt lat="44.53883" lon="1.75254">
        <ele>197.77</ele>
        <time>2015-11-11T14:34:48Z</time>
      </trkpt>
      <trkpt lat="44.53898" lon="1.75269">
        <ele>198.84</ele>
        <time>2015-11-11T14:35:04Z</time>
      </trkpt>
      <trkpt lat="44.53916" lon="1.75279">
        <ele>197.35</ele>
        <time>2015-11-11T14:35:19Z</time>
      </trkpt>
      <trkpt lat="44.53932" lon="1.7529">
        <ele>192.04</ele>
        <time>2015-11-11T14:35:29Z</time>
      </trkpt>
      <trkpt lat="44.5395" lon="1.75302">
        <ele>191.93</ele>
        <time>2015-11-11T14:35:44Z</time>
      </trkpt>
      <trkpt lat="44.53964" lon="1.75319">
        <ele>199.56</ele>
        <time>2015-11-11T14:36:13Z</time>
      </trkpt>
      <trkpt lat="44.53977" lon="1.75336">
        <ele>197.32</ele>
        <time>2015-11-11T14:36:27Z</time>
      </trkpt>
      <trkpt lat="44.53992" lon="1.75352">
        <ele>193.7</ele>
        <time>2015-11-11T14:36:40Z</time>
      </trkpt>
      <trkpt lat="44.54005" lon="1.75369">
        <ele>192.19</ele>
        <time>2015-11-11T14:36:53Z</time>
      </trkpt>
      <trkpt lat="44.54017" lon="1.75389">
        <ele>194.59</ele>
        <time>2015-11-11T14:37:07Z</time>
      </trkpt>
      <trkpt lat="44.5403" lon="1.75411">
        <ele>188.97</ele>
        <time>2015-11-11T14:37:24Z</time>
      </trkpt>
      <trkpt lat="44.54045" lon="1.7543">
        <ele>191.98</ele>
        <time>2015-11-11T14:37:39Z</time>
      </trkpt>
      <trkpt lat="44.54058" lon="1.75446">
        <ele>192.16</ele>
        <time>2015-11-11T14:37:56Z</time>
      </trkpt>
      <trkpt lat="44.54068" lon="1.75468">
        <ele>192.12</ele>
        <time>2015-11-11T14:38:22Z</time>
      </trkpt>
      <trkpt lat="44.54078" lon="1.75491">
        <ele>193.15</ele>
        <time>2015-11-11T14:38:41Z</time>
      </trkpt>
      <trkpt lat="44.5409" lon="1.7551">
        <ele>191.49</ele>
        <time>2015-11-11T14:39:33Z</time>
      </trkpt>
      <trkpt lat="44.54095" lon="1.75534">
        <ele>193.11</ele>
        <time>2015-11-11T14:39:45Z</time>
      </trkpt>
      <trkpt lat="44.54103" lon="1.75557">
        <ele>188.51</ele>
        <time>2015-11-11T14:40:13Z</time>
      </trkpt>
      <trkpt lat="44.54113" lon="1.75579">
        <ele>187.98</ele>
        <time>2015-11-11T14:40:28Z</time>
      </trkpt>
      <trkpt lat="44.54123" lon="1.75602">
        <ele>190.95</ele>
        <time>2015-11-11T14:40:43Z</time>
      </trkpt>
      <trkpt lat="44.54132" lon="1.75625">
        <ele>192.87</ele>
        <time>2015-11-11T14:40:55Z</time>
      </trkpt>
      <trkpt lat="44.54137" lon="1.75651">
        <ele>193.49</ele>
        <time>2015-11-11T14:41:07Z</time>
      </trkpt>
      <trkpt lat="44.54144" lon="1.75675">
        <ele>191.18</ele>
        <time>2015-11-11T14:41:23Z</time>
      </trkpt>
      <trkpt lat="44.54144" lon="1.75701">
        <ele>191.66</ele>
        <time>2015-11-11T14:41:37Z</time>
      </trkpt>
      <trkpt lat="44.54148" lon="1.75726">
        <ele>189.26</ele>
        <time>2015-11-11T14:41:49Z</time>
      </trkpt>
      <trkpt lat="44.54152" lon="1.75751">
        <ele>190.34</ele>
        <time>2015-11-11T14:42:16Z</time>
      </trkpt>
      <trkpt lat="44.54157" lon="1.75776">
        <ele>190.16</ele>
        <time>2015-11-11T14:42:29Z</time>
      </trkpt>
      <trkpt lat="44.54164" lon="1.758">
        <ele>184.35</ele>
        <time>2015-11-11T14:42:43Z</time>
      </trkpt>
      <trkpt lat="44.54169" lon="1.75825">
        <ele>183.9</ele>
        <time>2015-11-11T14:43:06Z</time>
      </trkpt>
      <trkpt lat="44.54173" lon="1.75851">
        <ele>186.26</ele>
        <time>2015-11-11T14:43:19Z</time>
      </trkpt>
      <trkpt lat="44.54186" lon="1.75869">
        <ele>186.1</ele>
        <time>2015-11-11T14:43:33Z</time>
      </trkpt>
      <trkpt lat="44.54198" lon="1.75889">
        <ele>184.73</ele>
        <time>2015-11-11T14:43:47Z</time>
      </trkpt>
      <trkpt lat="44.5421" lon="1.75909">
        <ele>182.82</ele>
        <time>2015-11-11T14:44:03Z</time>
      </trkpt>
      <trkpt lat="44.54269" lon="1.75936">
        <ele>182.6</ele>
        <time>2015-11-11T14:45:33Z</time>
      </trkpt>
      <trkpt lat="44.54288" lon="1.75941">
        <ele>174.95</ele>
        <time>2015-11-11T14:46:12Z</time>
      </trkpt>
      <trkpt lat="44.54305" lon="1.75949">
        <ele>176.29</ele>
        <time>2015-11-11T14:46:23Z</time>
      </trkpt>
      <trkpt lat="44.54324" lon="1.75953">
        <ele>187.19</ele>
        <time>2015-11-11T14:46:35Z</time>
      </trkpt>
      <trkpt lat="44.54343" lon="1.75952">
        <ele>185.18</ele>
        <time>2015-11-11T14:47:17Z</time>
      </trkpt>
      <trkpt lat="44.54359" lon="1.75964">
        <ele>187.04</ele>
        <time>2015-11-11T14:47:32Z</time>
      </trkpt>
      <trkpt lat="44.54377" lon="1.75969">
        <ele>176.43</ele>
        <time>2015-11-11T14:47:47Z</time>
      </trkpt>
      <trkpt lat="44.54391" lon="1.75986">
        <ele>181.11</ele>
        <time>2015-11-11T14:47:59Z</time>
      </trkpt>
      <trkpt lat="44.54405" lon="1.76002">
        <ele>185.34</ele>
        <time>2015-11-11T14:48:13Z</time>
      </trkpt>
      <trkpt lat="44.54417" lon="1.76022">
        <ele>187.39</ele>
        <time>2015-11-11T14:48:29Z</time>
      </trkpt>
      <trkpt lat="44.54435" lon="1.7603">
        <ele>183.03</ele>
        <time>2015-11-11T14:48:43Z</time>
      </trkpt>
      <trkpt lat="44.54453" lon="1.76025">
        <ele>183.04</ele>
        <time>2015-11-11T14:48:56Z</time>
      </trkpt>
      <trkpt lat="44.54472" lon="1.76022">
        <ele>183.94</ele>
        <time>2015-11-11T14:49:15Z</time>
      </trkpt>
      <trkpt lat="44.54491" lon="1.76015">
        <ele>178.88</ele>
        <time>2015-11-11T14:49:32Z</time>
      </trkpt>
      <trkpt lat="44.54509" lon="1.76009">
        <ele>176.14</ele>
        <time>2015-11-11T14:49:44Z</time>
      </trkpt>
      <trkpt lat="44.54528" lon="1.76006">
        <ele>171.65</ele>
        <time>2015-11-11T14:49:58Z</time>
      </trkpt>
      <trkpt lat="44.54549" lon="1.75998">
        <ele>170.44</ele>
        <time>2015-11-11T14:51:08Z</time>
      </trkpt>
      <trkpt lat="44.54566" lon="1.7599">
        <ele>172.14</ele>
        <time>2015-11-11T14:51:36Z</time>
      </trkpt>
      <trkpt lat="44.54585" lon="1.75993">
        <ele>170.68</ele>
        <time>2015-11-11T14:51:52Z</time>
      </trkpt>
      <trkpt lat="44.54604" lon="1.75993">
        <ele>168.59</ele>
        <time>2015-11-11T14:52:07Z</time>
      </trkpt>
      <trkpt lat="44.54622" lon="1.75989">
        <ele>167.98</ele>
        <time>2015-11-11T14:52:31Z</time>
      </trkpt>
      <trkpt lat="44.5464" lon="1.75987">
        <ele>168.91</ele>
        <time>2015-11-11T14:52:45Z</time>
      </trkpt>
      <trkpt lat="44.54658" lon="1.75986">
        <ele>163.49</ele>
        <time>2015-11-11T14:53:00Z</time>
      </trkpt>
      <trkpt lat="44.54677" lon="1.75993">
        <ele>163.06</ele>
        <time>2015-11-11T14:53:17Z</time>
      </trkpt>
      <trkpt lat="44.54693" lon="1.76005">
        <ele>163.87</ele>
        <time>2015-11-11T14:53:32Z</time>
      </trkpt>
      <trkpt lat="44.54712" lon="1.7601">
        <ele>162.8</ele>
        <time>2015-11-11T14:53:46Z</time>
      </trkpt>
      <trkpt lat="44.5473" lon="1.76018">
        <ele>163.69</ele>
        <time>2015-11-11T14:54:01Z</time>
      </trkpt>
      <trkpt lat="44.54747" lon="1.7603">
        <ele>164.74</ele>
        <time>2015-11-11T14:54:17Z</time>
      </trkpt>
      <trkpt lat="44.54765" lon="1.76031">
        <ele>166.97</ele>
        <time>2015-11-11T14:54:36Z</time>
      </trkpt>
      <trkpt lat="44.54779" lon="1.7605">
        <ele>168.25</ele>
        <time>2015-11-11T14:55:04Z</time>
      </trkpt>
      <trkpt lat="44.54792" lon="1.76068">
        <ele>168.24</ele>
        <time>2015-11-11T14:55:24Z</time>
      </trkpt>
      <trkpt lat="44.54803" lon="1.76088">
        <ele>164.91</ele>
        <time>2015-11-11T14:55:42Z</time>
      </trkpt>
      <trkpt lat="44.54819" lon="1.76106">
        <ele>156.6</ele>
        <time>2015-11-11T14:55:59Z</time>
      </trkpt>
      <trkpt lat="44.54828" lon="1.7613">
        <ele>163.05</ele>
        <time>2015-11-11T14:56:16Z</time>
      </trkpt>
      <trkpt lat="44.5484" lon="1.76151">
        <ele>160.82</ele>
        <time>2015-11-11T14:56:30Z</time>
      </trkpt>
      <trkpt lat="44.54851" lon="1.76171">
        <ele>158.4</ele>
        <time>2015-11-11T14:56:44Z</time>
      </trkpt>
      <trkpt lat="44.54856" lon="1.76196">
        <ele>162.14</ele>
        <time>2015-11-11T14:57:12Z</time>
      </trkpt>
      <trkpt lat="44.54867" lon="1.76217">
        <ele>158.35</ele>
        <time>2015-11-11T14:57:24Z</time>
      </trkpt>
      <trkpt lat="44.54873" lon="1.76243">
        <ele>157.3</ele>
        <time>2015-11-11T14:57:36Z</time>
      </trkpt>
      <trkpt lat="44.5488" lon="1.76266">
        <ele>149.78</ele>
        <time>2015-11-11T14:57:53Z</time>
      </trkpt>
      <trkpt lat="44.54886" lon="1.7629">
        <ele>147.06</ele>
        <time>2015-11-11T14:58:07Z</time>
      </trkpt>
      <trkpt lat="44.54885" lon="1.76316">
        <ele>148.75</ele>
        <time>2015-11-11T14:58:21Z</time>
      </trkpt>
      <trkpt lat="44.54892" lon="1.76339">
        <ele>139.76</ele>
        <time>2015-11-11T14:58:38Z</time>
      </trkpt>
      <trkpt lat="44.54886" lon="1.76363">
        <ele>140.47</ele>
        <time>2015-11-11T14:58:59Z</time>
      </trkpt>
      <trkpt lat="44.54878" lon="1.7639">
        <ele>139.14</ele>
        <time>2015-11-11T14:59:13Z</time>
      </trkpt>
      <trkpt lat="44.54872" lon="1.76416">
        <ele>137.36</ele>
        <time>2015-11-11T14:59:32Z</time>
      </trkpt>
      <trkpt lat="44.54868" lon="1.76441">
        <ele>138.53</ele>
        <time>2015-11-11T15:00:02Z</time>
      </trkpt>
      <trkpt lat="44.54879" lon="1.76461">
        <ele>143.5</ele>
        <time>2015-11-11T15:00:18Z</time>
      </trkpt>
      <trkpt lat="44.54893" lon="1.76479">
        <ele>147.38</ele>
        <time>2015-11-11T15:00:29Z</time>
      </trkpt>
      <trkpt lat="44.54906" lon="1.76496">
        <ele>144.79</ele>
        <time>2015-11-11T15:00:55Z</time>
      </trkpt>
      <trkpt lat="44.54915" lon="1.76519">
        <ele>146.85</ele>
        <time>2015-11-11T15:01:07Z</time>
      </trkpt>
      <trkpt lat="44.54927" lon="1.76539">
        <ele>144.27</ele>
        <time>2015-11-11T15:01:20Z</time>
      </trkpt>
      <trkpt lat="44.54938" lon="1.7656">
        <ele>143.31</ele>
        <time>2015-11-11T15:01:32Z</time>
      </trkpt>
      <trkpt lat="44.54952" lon="1.76578">
        <ele>145.59</ele>
        <time>2015-11-11T15:01:44Z</time>
      </trkpt>
      <trkpt lat="44.54965" lon="1.76597">
        <ele>144</ele>
        <time>2015-11-11T15:02:00Z</time>
      </trkpt>
      <trkpt lat="44.54974" lon="1.7662">
        <ele>144.92</ele>
        <time>2015-11-11T15:02:17Z</time>
      </trkpt>
      <trkpt lat="44.54987" lon="1.76639">
        <ele>146.45</ele>
        <time>2015-11-11T15:02:32Z</time>
      </trkpt>
      <trkpt lat="44.55003" lon="1.76654">
        <ele>149.6</ele>
        <time>2015-11-11T15:02:53Z</time>
      </trkpt>
      <trkpt lat="44.55018" lon="1.76671">
        <ele>152.59</ele>
        <time>2015-11-11T15:03:04Z</time>
      </trkpt>
      <trkpt lat="44.55029" lon="1.76692">
        <ele>156.26</ele>
        <time>2015-11-11T15:03:20Z</time>
      </trkpt>
      <trkpt lat="44.55044" lon="1.76706">
        <ele>153.39</ele>
        <time>2015-11-11T15:03:33Z</time>
      </trkpt>
      <trkpt lat="44.55057" lon="1.76728">
        <ele>154.48</ele>
        <time>2015-11-11T15:03:52Z</time>
      </trkpt>
      <trkpt lat="44.55063" lon="1.76755">
        <ele>154.81</ele>
        <time>2015-11-11T15:04:04Z</time>
      </trkpt>
      <trkpt lat="44.55077" lon="1.7678">
        <ele>159.13</ele>
        <time>2015-11-11T15:04:27Z</time>
      </trkpt>
      <trkpt lat="44.55094" lon="1.768">
        <ele>159.26</ele>
        <time>2015-11-11T15:04:41Z</time>
      </trkpt>
      <trkpt lat="44.55104" lon="1.76822">
        <ele>159.49</ele>
        <time>2015-11-11T15:04:57Z</time>
      </trkpt>
      <trkpt lat="44.55107" lon="1.76847">
        <ele>156.23</ele>
        <time>2015-11-11T15:05:12Z</time>
      </trkpt>
      <trkpt lat="44.55123" lon="1.76861">
        <ele>158.31</ele>
        <time>2015-11-11T15:05:25Z</time>
      </trkpt>
      <trkpt lat="44.55133" lon="1.76883">
        <ele>155.23</ele>
        <time>2015-11-11T15:05:41Z</time>
      </trkpt>
      <trkpt lat="44.55149" lon="1.76895">
        <ele>150.48</ele>
        <time>2015-11-11T15:05:52Z</time>
      </trkpt>
      <trkpt lat="44.55158" lon="1.76918">
        <ele>151.56</ele>
        <time>2015-11-11T15:06:06Z</time>
      </trkpt>
      <trkpt lat="44.55176" lon="1.76932">
        <ele>148.22</ele>
        <time>2015-11-11T15:06:21Z</time>
      </trkpt>
      <trkpt lat="44.55193" lon="1.76945">
        <ele>145.97</ele>
        <time>2015-11-11T15:06:38Z</time>
      </trkpt>
      <trkpt lat="44.55211" lon="1.76957">
        <ele>144.8</ele>
        <time>2015-11-11T15:06:51Z</time>
      </trkpt>
      <trkpt lat="44.55229" lon="1.76965">
        <ele>149.82</ele>
        <time>2015-11-11T15:07:04Z</time>
      </trkpt>
    </trkseg>
  </trk>
</gpx>